M I D A S
Marine Information and Data Acquisition System
Tripno 857 of the Zeeleeuw from 2005-03-07 07:35:17 to 2005-03-07 18:04:43
Back to CruiseResearch ActivitiesStationsMapUnderway DataData graphs

EquipmentUnitsComment
TimeDGPSUTC
LatitudeDGPSDM.mWGS84
LongitudeDGPSDM.mWGS84
TemperatureSBE03/SBE38deg celciusITS90
ConductivitySBE21S/mITS90
SalinitySBE21 Practical Salinity Units
ChlorophylAChelsea fluorimeterg/lCalibrated in Aceton
Missing or incorrect values are displayed as -999
Sea surface data collected by the RV Zeeleeuw from 2005-03-07 07:28:23 to 2005-03-07 18:04:00
                                                                                    Next 1000 lines
Time Latitude Longitude Temperature Conductivity Salinity ChlorophylA
2005-03-07 07:28:33 51°13.595 2°56.1 10.6599 0.014221 0.075774 -0.882377
2005-03-07 07:28:38 51°13.596 2°56.099 10.8533 0.014221 0.075774 -0.882377
2005-03-07 07:28:42 51°13.596 2°56.097 10.8821 0.014221 0.075775 -0.882377
2005-03-07 07:28:48 51°13.597 2°56.093 10.8901 0.014221 0.075775 -0.848668
2005-03-07 07:28:53 51°13.598 2°56.09 10.8628 0.014221 0.075776 -0.882377
2005-03-07 07:28:59 51°13.599 2°56.085 10.8365 0.014221 0.075776 -0.882377
2005-03-07 07:29:04 51°13.601 2°56.081 10.8505 0.014221 0.075776 -0.848668
2005-03-07 07:29:09 51°13.602 2°56.076 10.8705 0.014221 0.075776 -0.848668
2005-03-07 07:29:14 51°13.604 2°56.071 10.8532 0.014221 0.075778 -0.882377
2005-03-07 07:29:19 51°13.606 2°56.066 10.8559 0.014221 0.075778 -0.882377
2005-03-07 07:29:24 51°13.608 2°56.06 10.8566 0.014221 0.075779 -0.848668
2005-03-07 07:29:29 51°13.61 2°56.053 10.8614 0.014221 0.07578 -0.848668
2005-03-07 07:29:34 51°13.612 2°56.047 10.8562 0.014221 0.07578 -0.848668
2005-03-07 07:29:39 51°13.614 2°56.039 10.862 0.014221 0.07578 -0.848668
2005-03-07 07:29:44 51°13.616 2°56.033 10.8751 0.014221 0.075781 -0.882377
2005-03-07 07:29:49 51°13.618 2°56.024 10.8521 0.014221 0.075782 -0.882377
2005-03-07 07:29:54 51°13.621 2°56.016 10.7711 0.014221 0.075783 -0.882377
2005-03-07 07:29:59 51°13.623 2°56.008 10.8297 0.014221 0.075783 -0.848668
2005-03-07 07:30:04 51°13.626 2°55.999 10.8671 0.014221 0.075784 -0.848668
2005-03-07 07:30:09 51°13.629 2°55.99 10.8566 0.014221 0.075784 -0.848668
2005-03-07 07:30:14 51°13.632 2°55.98 10.8782 0.014221 0.075784 -0.848668
2005-03-07 07:30:19 51°13.635 2°55.971 10.8971 0.014221 0.075785 -0.916087
2005-03-07 07:30:24 51°13.638 2°55.961 10.851 0.014221 0.075786 -0.882377
2005-03-07 07:30:29 51°13.641 2°55.95 10.8553 0.014221 0.075786 -0.882377
2005-03-07 07:30:34 51°13.644 2°55.941 10.889 0.014221 0.075787 -0.882377
2005-03-07 07:30:39 51°13.648 2°55.929 10.9261 0.014221 0.075787 -0.882377
2005-03-07 07:30:44 51°13.651 2°55.918 10.9026 0.014221 0.075787 -0.882377
2005-03-07 07:30:49 51°13.654 2°55.908 10.908 0.014221 0.075787 -0.848668
2005-03-07 07:30:54 51°13.658 2°55.897 10.9309 0.014221 0.075788 -0.882377
2005-03-07 07:30:59 51°13.661 2°55.885 10.9372 0.014221 0.075788 -0.882377
2005-03-07 07:31:04 51°13.664 2°55.873 10.926 0.014221 0.075788 -0.882377
2005-03-07 07:31:09 51°13.668 2°55.862 10.8926 0.014221 0.075788 -0.882377
2005-03-07 07:31:14 51°13.671 2°55.852 10.9527 0.014221 0.07579 -0.848668
2005-03-07 07:31:19 51°13.674 2°55.839 10.9408 0.014221 0.07579 -0.882377
2005-03-07 07:31:24 51°13.677 2°55.828 10.976 0.014221 0.075791 -0.848668
2005-03-07 07:31:29 51°13.68 2°55.818 10.9527 0.014221 0.075792 -0.882377
2005-03-07 07:31:34 51°13.682 2°55.809 10.9462 0.014221 0.075792 -0.848668
2005-03-07 07:31:39 51°13.684 2°55.799 10.9444 0.014221 0.075792 -0.848668
2005-03-07 07:31:44 51°13.686 2°55.79 10.9487 0.014221 0.075793 -0.882377
2005-03-07 07:31:48 51°13.688 2°55.782 10.9464 0.014221 0.075793 -0.882377
2005-03-07 07:31:54 51°13.69 2°55.773 10.9106 0.014221 0.075794 -0.882377
2005-03-07 07:31:58 51°13.691 2°55.767 10.9088 0.014221 0.075795 -0.882377
2005-03-07 07:32:04 51°13.692 2°55.76 10.9656 0.014221 0.075794 -0.882377
2005-03-07 07:32:09 51°13.693 2°55.755 10.989 0.014221 0.075794 -0.882377
2005-03-07 07:32:14 51°13.694 2°55.753 10.9854 0.014221 0.075796 -0.848668
2005-03-07 07:32:19 51°13.694 2°55.752 10.9912 0.014221 0.075796 -0.848668
2005-03-07 07:32:24 51°13.695 2°55.752 10.9848 0.014221 0.075797 -0.882377
2005-03-07 07:32:29 51°13.695 2°55.753 10.9863 0.014221 0.075797 -0.882377
2005-03-07 07:32:34 51°13.695 2°55.756 11.0059 0.014221 0.0758 -0.882377
2005-03-07 07:32:39 51°13.696 2°55.759 11.0087 0.014221 0.0758 -0.882377
2005-03-07 07:32:44 51°13.697 2°55.762 10.9962 0.014221 0.0758 -0.848668
2005-03-07 07:32:48 51°13.698 2°55.766 11.0303 0.014221 0.075801 -0.882377
2005-03-07 07:32:52 51°13.7 2°55.769 11.034 0.014221 0.075802 -0.916087
2005-03-07 07:32:59 51°13.703 2°55.775 10.9824 0.014221 0.075803 -0.848668
2005-03-07 07:33:04 51°13.706 2°55.779 10.6838 0.014221 0.075803 -0.882377
2005-03-07 07:33:09 51°13.709 2°55.781 10.4651 0.014221 0.075803 -0.882377
2005-03-07 07:33:14 51°13.711 2°55.783 10.5483 0.014221 0.075804 -0.882377
2005-03-07 07:33:19 51°13.713 2°55.785 10.7449 0.014221 0.075805 -0.848668
2005-03-07 07:33:24 51°13.713 2°55.785 10.4633 0.014221 0.075804 -0.848668
2005-03-07 07:33:29 51°13.713 2°55.785 10.703 0.014221 0.075806 -0.882377
2005-03-07 07:33:34 51°13.712 2°55.784 10.7087 0.014221 0.075805 -0.882377
2005-03-07 07:33:39 51°13.71 2°55.784 10.7448 0.014221 0.075805 -0.882377
2005-03-07 07:33:44 51°13.707 2°55.783 10.7643 0.014221 0.075807 -0.882377
2005-03-07 07:33:49 51°13.705 2°55.782 10.7651 0.014221 0.075809 -0.882377
2005-03-07 07:33:54 51°13.703 2°55.781 9.6908 0.014221 0.07581 -0.882377
2005-03-07 07:33:59 51°13.702 2°55.78 5.8037 0.014221 0.075812 -0.882377
2005-03-07 07:34:04 51°13.702 2°55.78 4.6517 0.014221 0.075901 -0.882377
2005-03-07 07:34:09 51°13.703 2°55.78 4.1463 0.014221 0.075901 -0.882377
2005-03-07 07:34:14 51°13.705 2°55.78 3.7523 0.014221 0.075975 -0.882377
2005-03-07 07:34:19 51°13.708 2°55.78 3.5548 2.875526 21.258368 2.252597
2005-03-07 07:34:24 51°13.712 2°55.779 3.382 2.76223 22.275779 2.893076
2005-03-07 07:34:29 51°13.717 2°55.777 3.3436 2.751741 24.432328 3.162751
2005-03-07 07:34:34 51°13.722 2°55.772 3.2446 2.416141 22.644135 4.511127
2005-03-07 07:34:39 51°13.726 2°55.768 3.1825 2.416141 22.644135 4.511127
2005-03-07 07:34:44 51°13.731 2°55.761 3.1375 2.218645 21.597922 5.4887
2005-03-07 07:34:48 51°13.734 2°55.755 3.1526 2.154974 21.449369 5.724665
2005-03-07 07:34:54 51°13.74 2°55.747 3.0844 2.074502 20.948749 5.792084
2005-03-07 07:34:58 51°13.744 2°55.74 3.058 1.965377 19.950676 5.825794
2005-03-07 07:35:04 51°13.75 2°55.73 3.0495 1.904474 19.399787 5.994341
2005-03-07 07:35:08 51°13.755 2°55.722 3.0411 1.904474 19.399787 5.994341
2005-03-07 07:35:12 51°13.759 2°55.715 2.9905 1.841064 18.805656 6.061759
2005-03-07 07:35:17 51°13.765 2°55.705 3.0164 1.801595 18.425174 5.926922
2005-03-07 07:35:23 51°13.772 2°55.693 3.064 1.77819 18.207329 5.960631
2005-03-07 07:35:28 51°13.779 2°55.683 3.0474 1.775566 18.215219 5.893212
2005-03-07 07:35:32 51°13.785 2°55.675 2.9636 1.781129 18.309664 5.825794
2005-03-07 07:35:37 51°13.793 2°55.665 2.9637 1.781129 18.309664 5.825794
2005-03-07 07:35:44 51°13.803 2°55.652 2.9651 1.736841 17.824784 5.926922
2005-03-07 07:35:49 51°13.812 2°55.643 2.96 1.700113 17.441378 5.994341
2005-03-07 07:35:53 51°13.821 2°55.635 2.9424 1.659403 17.000663 5.926922
2005-03-07 07:35:58 51°13.829 2°55.626 2.9532 1.640729 16.792435 5.960631
2005-03-07 07:36:03 51°13.84 2°55.617 2.9617 1.654472 16.964133 5.893212
2005-03-07 07:36:08 51°13.851 2°55.609 2.9913 1.654472 16.964133 5.893212
2005-03-07 07:36:13 51°13.861 2°55.6 2.9517 1.668007 17.13306 5.893212
2005-03-07 07:36:18 51°13.872 2°55.593 2.925 1.700953 17.514827 5.859503
2005-03-07 07:36:23 51°13.883 2°55.585 2.9085 1.73023 17.84931 5.724665
2005-03-07 07:36:29 51°13.896 2°55.576 2.8912 1.763288 18.22867 5.724665
2005-03-07 07:36:32 51°13.903 2°55.571 2.9105 1.796665 18.605457 5.724665
2005-03-07 07:36:38 51°13.915 2°55.563 2.8933 1.796665 18.605457 5.724665
2005-03-07 07:36:44 51°13.929 2°55.554 2.9045 1.821437 18.885904 5.589828
2005-03-07 07:36:48 51°13.939 2°55.548 2.8934 1.833718 19.028298 5.522409
2005-03-07 07:36:54 51°13.952 2°55.539 2.8801 1.864688 19.396344 5.421281
2005-03-07 07:36:58 51°13.962 2°55.532 2.9035 1.869727 19.468642 5.353862
2005-03-07 07:37:04 51°13.975 2°55.524 2.8836 1.903639 19.861968 5.151606
2005-03-07 07:37:08 51°13.985 2°55.517 2.8757 1.903639 19.861968 5.151606
2005-03-07 07:37:14 51°13.998 2°55.509 2.8861 1.911199 19.957407 4.983059
2005-03-07 07:37:19 51°14.009 2°55.501 2.8635 1.920859 20.067368 4.91564
2005-03-07 07:37:23 51°14.018 2°55.494 2.8516 1.93136 20.18922 4.713383
2005-03-07 07:37:29 51°14.03 2°55.486 2.8716 1.928735 20.168322 4.679674
2005-03-07 07:37:33 51°14.039 2°55.48 2.8615 1.944066 20.343709 4.544836
2005-03-07 07:37:38 51°14.049 2°55.473 2.8343 1.944066 20.343709 4.544836
2005-03-07 07:37:44 51°14.06 2°55.465 2.839 1.93934 20.293777 4.477418
2005-03-07 07:37:48 51°14.069 2°55.459 2.8324 1.946061 20.375011 4.34258
2005-03-07 07:37:52 51°14.077 2°55.453 2.848 1.93577 20.265513 4.308871
2005-03-07 07:37:58 51°14.088 2°55.446 2.8144 1.918865 20.078856 4.207742
2005-03-07 07:38:04 51°14.1 2°55.438 2.8083 1.888626 19.737067 4.174033
2005-03-07 07:38:08 51°14.109 2°55.431 2.8131 1.888626 19.737067 4.174033
2005-03-07 07:38:12 51°14.118 2°55.425 2.8113 1.854925 19.361333 4.140324
2005-03-07 07:38:19 51°14.131 2°55.415 2.7942 1.828891 19.0731 4.106614
2005-03-07 07:38:24 51°14.142 2°55.406 2.7885 1.803278 18.785155 4.072905
2005-03-07 07:38:28 51°14.151 2°55.398 2.7762 1.802858 18.784604 4.005486
2005-03-07 07:38:33 51°14.162 2°55.388 2.7787 1.801494 18.779655 3.904358
2005-03-07 07:38:39 51°14.173 2°55.377 2.7794 1.801494 18.779655 3.904358
2005-03-07 07:38:44 51°14.184 2°55.366 2.7916 1.801389 18.780043 3.870648
2005-03-07 07:38:49 51°14.194 2°55.355 2.7814 1.81577 18.947531 3.80323
2005-03-07 07:38:53 51°14.203 2°55.344 2.7907 1.824377 19.052274 3.735811
2005-03-07 07:38:58 51°14.212 2°55.333 2.7891 1.835189 19.181696 3.634683
2005-03-07 07:39:04 51°14.224 2°55.317 2.7795 1.854505 19.407088 3.466136
2005-03-07 07:39:08 51°14.232 2°55.305 2.7852 1.854505 19.407088 3.466136
2005-03-07 07:39:13 51°14.242 2°55.29 2.785 1.869098 19.575115 3.432426
2005-03-07 07:39:18 51°14.25 2°55.277 2.7835 1.874873 19.643201 3.331298
2005-03-07 07:39:23 51°14.26 2°55.26 2.7773 1.864899 19.52941 3.263879
2005-03-07 07:39:28 51°14.269 2°55.245 2.7869 1.85902 19.459634 3.19646
2005-03-07 07:39:34 51°14.278 2°55.228 2.7841 1.856605 19.433745 3.129042
2005-03-07 07:39:38 51°14.285 2°55.215 2.7881 1.856605 19.433745 3.129042
2005-03-07 07:39:44 51°14.295 2°55.196 2.7881 1.85986 19.473582 3.162751
2005-03-07 07:39:48 51°14.302 2°55.181 2.793 1.857025 19.442353 3.162751
2005-03-07 07:39:53 51°14.311 2°55.164 2.7932 1.876342 19.662737 3.129042
2005-03-07 07:39:58 51°14.317 2°55.149 2.809 1.880857 19.715385 3.095332
2005-03-07 07:40:04 51°14.327 2°55.129 2.817 1.878862 19.690949 3.129042
2005-03-07 07:40:08 51°14.334 2°55.113 2.8176 1.878862 19.690949 3.129042
2005-03-07 07:40:12 51°14.34 2°55.1 2.8392 1.924325 20.21125 3.095332
2005-03-07 07:40:17 51°14.348 2°55.083 2.853 1.942386 20.418687 3.129042
2005-03-07 07:40:24 51°14.358 2°55.062 2.848 1.961394 20.63547 3.19646
2005-03-07 07:40:28 51°14.366 2°55.048 2.8562 1.983552 20.886907 3.027913
2005-03-07 07:40:32 51°14.374 2°55.036 2.8465 2.020417 21.305365 3.061623
2005-03-07 07:40:37 51°14.384 2°55.023 2.8438 2.020417 21.305365 3.061623
2005-03-07 07:40:43 51°14.396 2°55.008 2.8629 2.058651 21.744562 2.994204
2005-03-07 07:40:48 51°14.406 2°54.996 2.8631 2.080395 21.987433 2.994204
2005-03-07 07:40:53 51°14.417 2°54.984 2.8845 2.113067 22.359198 3.061623
2005-03-07 07:40:58 51°14.427 2°54.975 2.8619 2.164444 22.94878 2.994204
2005-03-07 07:41:02 51°14.436 2°54.967 2.8526 2.19187 23.262955 2.994204
2005-03-07 07:41:09 51°14.453 2°54.952 2.8526 2.19187 23.262955 2.994204
2005-03-07 07:41:13 51°14.463 2°54.943 2.8536 2.214463 23.524655 2.893076
2005-03-07 07:41:18 51°14.474 2°54.933 2.8546 2.206791 23.427661 2.893076
2005-03-07 07:41:23 51°14.488 2°54.92 2.8625 2.230331 23.698489 2.893076
2005-03-07 07:41:28 51°14.5 2°54.908 2.845 2.236321 23.764804 2.825657
2005-03-07 07:41:32 51°14.511 2°54.898 2.8396 2.249248 23.920504 2.825657
2005-03-07 07:41:38 51°14.525 2°54.884 2.8349 2.249248 23.920504 2.825657
2005-03-07 07:41:43 51°14.539 2°54.87 2.847 2.274157 24.213955 2.758238
2005-03-07 07:41:48 51°14.551 2°54.858 2.8372 2.293706 24.445338 2.690819
2005-03-07 07:41:53 51°14.565 2°54.843 2.8339 2.3203 24.759327 2.758238
2005-03-07 07:41:58 51°14.577 2°54.831 2.8494 2.345318 25.0512 2.6234
2005-03-07 07:42:04 51°14.592 2°54.817 2.8488 2.351205 25.127844 2.522272
2005-03-07 07:42:09 51°14.605 2°54.804 2.846 2.351205 25.127844 2.522272
2005-03-07 07:42:13 51°14.617 2°54.793 2.8398 2.425744 26.005284 2.488563
2005-03-07 07:42:19 51°14.631 2°54.78 2.836 2.441305 26.18978 2.488563
2005-03-07 07:42:24 51°14.645 2°54.768 2.8368 2.464438 26.463635 2.421144
2005-03-07 07:42:28 51°14.658 2°54.758 2.8313 2.505344 26.944598 2.387435
2005-03-07 07:42:32 51°14.669 2°54.748 2.8161 2.509655 26.989456 2.353725
2005-03-07 07:42:38 51°14.684 2°54.735 2.8181 2.509655 26.989456 2.353725
2005-03-07 07:42:43 51°14.7 2°54.721 2.8187 2.532055 27.254081 2.353725
2005-03-07 07:42:48 51°14.715 2°54.708 2.8153 2.548462 27.450403 2.454853
2005-03-07 07:42:52 51°14.726 2°54.697 2.8103 2.558453 27.572511 2.421144
2005-03-07 07:42:58 51°14.742 2°54.683 2.8104 2.578331 27.811094 2.454853
2005-03-07 07:43:04 51°14.76 2°54.667 2.8135 2.593477 28.000107 2.522272
2005-03-07 07:43:08 51°14.774 2°54.655 2.8062 2.593477 28.000107 2.522272
2005-03-07 07:43:13 51°14.789 2°54.642 2.804 2.603785 28.12482 2.589691
2005-03-07 07:43:18 51°14.802 2°54.63 2.8065 2.603575 28.125479 2.65711
2005-03-07 07:43:23 51°14.818 2°54.617 2.8086 2.611254 28.219842 2.6234
2005-03-07 07:43:29 51°14.836 2°54.6 2.8087 2.616513 28.285509 2.589691
2005-03-07 07:43:34 51°14.852 2°54.587 2.8135 2.612937 28.246179 2.65711
2005-03-07 07:43:37 51°14.862 2°54.577 2.8047 2.612937 28.246179 2.65711
2005-03-07 07:43:43 51°14.881 2°54.559 2.806 2.618617 28.314487 2.589691
2005-03-07 07:43:48 51°14.895 2°54.546 2.8103 2.617249 28.302203 2.6234
2005-03-07 07:43:54 51°14.913 2°54.528 2.8119 2.621772 28.358372 2.6234
2005-03-07 07:43:58 51°14.927 2°54.516 2.8101 2.631029 28.466885 2.589691
2005-03-07 07:44:04 51°14.944 2°54.5 2.8126 2.622193 28.359395 2.555982
2005-03-07 07:44:08 51°14.958 2°54.486 2.8158 2.622193 28.359395 2.555982
2005-03-07 07:44:13 51°14.973 2°54.471 2.8193 2.624612 28.388962 2.555982
2005-03-07 07:44:18 51°14.986 2°54.458 2.8287 2.633554 28.497724 2.555982
2005-03-07 07:44:23 51°15.003 2°54.441 2.8283 2.625138 28.398406 2.555982
2005-03-07 07:44:28 51°15.018 2°54.426 2.8242 2.63692 28.538583 2.589691
2005-03-07 07:44:33 51°15.033 2°54.411 2.8282 2.630293 28.458924 2.522272
2005-03-07 07:44:39 51°15.05 2°54.394 2.8297 2.630293 28.458924 2.522272
2005-03-07 07:44:44 51°15.065 2°54.381 2.8269 2.641233 28.587512 2.555982
2005-03-07 07:44:48 51°15.077 2°54.369 2.8296 2.640181 28.573387 2.589691
2005-03-07 07:44:53 51°15.094 2°54.354 2.832 2.62882 28.431825 2.65711
2005-03-07 07:44:58 51°15.108 2°54.341 2.8347 2.640075 28.56572 2.65711
2005-03-07 07:45:04 51°15.126 2°54.324 2.8367 2.640075 28.564116 2.65711
2005-03-07 07:45:08 51°15.14 2°54.312 2.8333 2.640075 28.564116 2.65711
2005-03-07 07:45:13 51°15.156 2°54.299 2.8358 2.638497 28.544541 2.690819
2005-03-07 07:45:18 51°15.17 2°54.286 2.8351 2.638182 28.539185 2.791947
2005-03-07 07:45:24 51°15.189 2°54.27 2.8349 2.644493 28.612677 2.825657
2005-03-07 07:45:29 51°15.204 2°54.257 2.8314 2.644073 28.608473 2.859366
2005-03-07 07:45:34 51°15.219 2°54.244 2.8366 2.631555 28.455568 2.825657
2005-03-07 07:45:39 51°15.234 2°54.23 2.8442 2.631555 28.455568 2.825657
2005-03-07 07:45:43 51°15.248 2°54.218 2.8356 2.644283 28.606963 2.825657
2005-03-07 07:45:49 51°15.265 2°54.203 2.8339 2.644178 28.608119 2.724529
2005-03-07 07:45:53 51°15.278 2°54.191 2.8359 2.648806 28.664006 2.65711
2005-03-07 07:45:58 51°15.293 2°54.178 2.8332 2.647123 28.640759 2.65711
2005-03-07 07:46:03 51°15.31 2°54.163 2.8331 2.64807 28.654438 2.555982
2005-03-07 07:46:08 51°15.325 2°54.148 2.8406 2.64807 28.654438 2.555982
2005-03-07 07:46:12 51°15.336 2°54.139 2.8423 2.644493 28.611874 2.589691
2005-03-07 07:46:19 51°15.358 2°54.118 2.8388 2.646492 28.637266 2.6234
2005-03-07 07:46:23 51°15.371 2°54.105 2.8433 2.649753 28.676079 2.690819
2005-03-07 07:46:28 51°15.387 2°54.09 2.8423 2.644493 28.614283 2.65711
2005-03-07 07:46:33 51°15.402 2°54.075 2.8474 2.650069 28.681446 2.724529
2005-03-07 07:46:39 51°15.418 2°54.058 2.8555 2.650069 28.681446 2.724529
2005-03-07 07:46:44 51°15.434 2°54.043 2.8575 2.651541 28.698172 2.65711
2005-03-07 07:46:48 51°15.446 2°54.03 2.86 2.654592 28.73288 2.522272
2005-03-07 07:46:53 51°15.46 2°54.016 2.8691 2.653961 28.726171 2.488563
2005-03-07 07:46:58 51°15.478 2°53.998 2.8821 2.656065 28.750415 2.353725
2005-03-07 07:47:03 51°15.492 2°53.984 2.8909 2.653224 28.711765 2.252597
2005-03-07 07:47:08 51°15.506 2°53.971 2.8899 2.653224 28.711765 2.252597
2005-03-07 07:47:14 51°15.524 2°53.955 2.8957 2.659326 28.781171 2.218888
2005-03-07 07:47:17 51°15.535 2°53.944 2.8951 2.662061 28.809695 2.151469
2005-03-07 07:47:23 51°15.554 2°53.928 2.8947 2.665427 28.844922 2.117759
2005-03-07 07:47:28 51°15.568 2°53.915 2.8987 2.669214 28.883534 2.08405
2005-03-07 07:47:34 51°15.586 2°53.899 2.9006 2.666269 28.839576 2.08405
2005-03-07 07:47:38 51°15.6 2°53.887 2.8994 2.666269 28.839576 2.08405
2005-03-07 07:47:43 51°15.614 2°53.874 2.9014 2.670792 28.887743 2.050341
2005-03-07 07:47:48 51°15.628 2°53.861 2.907 2.67479 28.931266 2.050341
2005-03-07 07:47:52 51°15.642 2°53.849 2.9065 2.672054 28.897098 2.050341
2005-03-07 07:47:58 51°15.661 2°53.832 2.9008 2.675947 28.941794 2.08405
2005-03-07 07:48:03 51°15.676 2°53.819 2.8996 2.674579 28.923089 2.117759
2005-03-07 07:48:08 51°15.69 2°53.807 2.9007 2.674579 28.923089 2.117759
2005-03-07 07:48:12 51°15.704 2°53.795 2.8965 2.681207 29.00196 2.151469
2005-03-07 07:48:18 51°15.721 2°53.78 2.9009 2.673632 28.908585 2.286306
2005-03-07 07:48:24 51°15.739 2°53.764 2.9033 2.683837 29.028387 2.286306
2005-03-07 07:48:28 51°15.753 2°53.751 2.8953 2.681733 29.003346 2.353725
2005-03-07 07:48:34 51°15.77 2°53.735 2.9091 2.679629 28.980744 2.353725
2005-03-07 07:48:38 51°15.782 2°53.725 2.8998 2.679629 28.980744 2.353725
2005-03-07 07:48:44 51°15.801 2°53.709 2.9007 2.680996 28.996207 2.421144
2005-03-07 07:48:48 51°15.814 2°53.697 2.9033 2.678261 28.964469 2.387435
2005-03-07 07:48:53 51°15.83 2°53.684 2.9014 2.682364 29.014109 2.555982
2005-03-07 07:48:58 51°15.844 2°53.672 2.9001 2.685099 29.045853 2.421144
2005-03-07 07:49:03 51°15.861 2°53.657 2.9026 2.68026 28.987443 2.454853
2005-03-07 07:49:08 51°15.876 2°53.644 2.9088 2.68026 28.987443 2.454853
2005-03-07 07:49:12 51°15.887 2°53.635 2.9006 2.679629 28.980744 2.522272
2005-03-07 07:49:19 51°15.908 2°53.617 2.9017 2.686993 29.06921 2.454853
2005-03-07 07:49:24 51°15.924 2°53.603 2.903 2.672475 28.894819 2.488563
2005-03-07 07:49:29 51°15.94 2°53.589 2.9013 2.684573 29.040405 2.522272
2005-03-07 07:49:33 51°15.953 2°53.578 2.9022 2.686151 29.059191 2.589691
2005-03-07 07:49:38 51°15.967 2°53.565 2.9082 2.686151 29.059191 2.589691
2005-03-07 07:49:44 51°15.984 2°53.551 2.9079 2.679839 28.982436 2.65711
2005-03-07 07:49:48 51°15.997 2°53.539 2.9043 2.680891 28.995767 2.589691
2005-03-07 07:49:53 51°16.012 2°53.526 2.9063 2.688676 29.08925 2.589691
2005-03-07 07:49:58 51°16.028 2°53.512 2.9092 2.684258 29.035835 2.555982
2005-03-07 07:50:02 51°16.039 2°53.503 2.9088 2.683206 29.024126 2.589691
2005-03-07 07:50:09 51°16.06 2°53.485 2.9126 2.683206 29.024126 2.589691
2005-03-07 07:50:13 51°16.074 2°53.472 2.9106 2.679734 28.982807 2.65711
2005-03-07 07:50:18 51°16.089 2°53.46 2.9109 2.688886 29.089311 2.6234
2005-03-07 07:50:23 51°16.104 2°53.446 2.9135 2.689202 29.093068 2.589691
2005-03-07 07:50:29 51°16.122 2°53.432 2.9116 2.692253 29.13021 2.522272
2005-03-07 07:50:34 51°16.137 2°53.419 2.9193 2.691201 29.116052 2.555982
2005-03-07 07:50:38 51°16.151 2°53.407 2.9218 2.691201 29.116052 2.555982
2005-03-07 07:50:44 51°16.168 2°53.392 2.9206 2.690254 29.103148 2.555982
2005-03-07 07:50:48 51°16.181 2°53.381 2.9279 2.688255 29.078538 2.589691
2005-03-07 07:50:53 51°16.194 2°53.369 2.9327 2.692253 29.126131 2.555982
2005-03-07 07:50:57 51°16.209 2°53.357 2.9336 2.694357 29.150367 2.589691
2005-03-07 07:51:04 51°16.229 2°53.34 2.9318 2.695935 29.168341 2.6234
2005-03-07 07:51:08 51°16.243 2°53.329 2.9371 2.695935 29.168341 2.6234
2005-03-07 07:51:13 51°16.257 2°53.317 2.938 2.692884 29.128752 2.6234
2005-03-07 07:51:19 51°16.275 2°53.301 2.9408 2.697618 29.181848 2.589691
2005-03-07 07:51:23 51°16.29 2°53.289 2.9465 2.699302 29.199437 2.65711
2005-03-07 07:51:28 51°16.305 2°53.276 2.9458 2.694357 29.136496 2.65711
2005-03-07 07:51:33 51°16.318 2°53.264 2.9513 2.695724 29.148694 2.65711
2005-03-07 07:51:38 51°16.335 2°53.25 2.9551 2.695724 29.148694 2.65711
2005-03-07 07:51:44 51°16.352 2°53.235 2.9584 2.692884 29.115708 2.65711
2005-03-07 07:51:48 51°16.367 2°53.223 2.9583 2.702668 29.229704 2.65711
2005-03-07 07:51:53 51°16.382 2°53.21 2.9637 2.700353 29.199702 2.690819
2005-03-07 07:51:58 51°16.398 2°53.196 2.9645 2.703089 29.229805 2.724529
2005-03-07 07:52:02 51°16.41 2°53.186 2.9642 2.70109 29.20193 2.65711
2005-03-07 07:52:08 51°16.428 2°53.17 2.9699 2.70109 29.20193 2.65711
2005-03-07 07:52:13 51°16.443 2°53.157 2.968 2.705088 29.246234 2.724529
2005-03-07 07:52:18 51°16.459 2°53.143 2.9713 2.70614 29.255481 2.690819
2005-03-07 07:52:23 51°16.474 2°53.13 2.9718 2.702668 29.212537 2.690819
2005-03-07 07:52:28 51°16.489 2°53.117 2.976 2.699512 29.171727 2.690819
2005-03-07 07:52:34 51°16.506 2°53.103 2.9765 2.707928 29.270215 2.791947
2005-03-07 07:52:38 51°16.52 2°53.091 2.9782 2.707928 29.270215 2.791947
2005-03-07 07:52:43 51°16.535 2°53.078 2.982 2.707612 29.264005 2.758238
2005-03-07 07:52:48 51°16.55 2°53.064 2.9791 2.710348 29.295731 2.791947
2005-03-07 07:52:54 51°16.567 2°53.05 2.982 2.705824 29.240275 2.893076
2005-03-07 07:52:58 51°16.581 2°53.037 2.982 2.70151 29.185709 2.859366
2005-03-07 07:53:02 51°16.593 2°53.027 2.981 2.709822 29.282922 2.859366
2005-03-07 07:53:08 51°16.61 2°53.011 2.9845 2.709822 29.282922 2.859366
2005-03-07 07:53:14 51°16.629 2°52.995 2.9866 2.7114 29.300057 2.960494
2005-03-07 07:53:18 51°16.641 2°52.985 2.9884 2.713083 29.318443 2.926785
2005-03-07 07:53:24 51°16.659 2°52.969 2.9911 2.713294 29.318488 2.893076
2005-03-07 07:53:28 51°16.672 2°52.956 2.994 2.708664 29.264249 2.960494
2005-03-07 07:53:32 51°16.685 2°52.945 2.9952 2.716239 29.353531 2.926785
2005-03-07 07:53:39 51°16.705 2°52.927 2.994 2.716239 29.353531 2.926785
2005-03-07 07:53:44 51°16.718 2°52.915 2.9927 2.714661 29.333938 2.960494
2005-03-07 07:53:49 51°16.735 2°52.9 2.9958 2.713083 29.313527 3.027913
2005-03-07 07:53:53 51°16.745 2°52.889 2.9976 2.710979 29.286047 2.994204
2005-03-07 07:53:59 51°16.759 2°52.875 3.0005 2.715187 29.335277 2.994204
2005-03-07 07:54:04 51°16.775 2°52.861 3.0011 2.712557 29.301539 2.994204
2005-03-07 07:54:09 51°16.789 2°52.849 3.0027 2.712557 29.301539 2.994204
2005-03-07 07:54:12 51°16.799 2°52.84 3.0031 2.711294 29.284073 2.994204
2005-03-07 07:54:19 51°16.819 2°52.824 3.0083 2.71403 29.31496 2.994204
2005-03-07 07:54:24 51°16.834 2°52.814 3.0135 2.717923 29.35961 3.061623
2005-03-07 07:54:28 51°16.847 2°52.805 3.013 2.717502 29.353786 3.095332
2005-03-07 07:54:34 51°16.865 2°52.792 3.0178 2.71929 29.374235 2.994204
2005-03-07 07:54:37 51°16.876 2°52.784 3.0196 2.71929 29.374235 2.994204
2005-03-07 07:54:43 51°16.895 2°52.771 3.0251 2.718869 29.36841 3.061623
2005-03-07 07:54:48 51°16.911 2°52.76 3.0244 2.718343 29.358874 2.994204
2005-03-07 07:54:54 51°16.929 2°52.748 3.0236 2.722973 29.41228 3.061623
2005-03-07 07:54:58 51°16.943 2°52.739 3.0279 2.725077 29.434839 2.994204
2005-03-07 07:55:03 51°16.959 2°52.728 3.0251 2.724761 29.427798 3.027913
2005-03-07 07:55:08 51°16.974 2°52.717 3.0272 2.724761 29.427798 3.027913
2005-03-07 07:55:13 51°16.991 2°52.706 3.0294 2.724025 29.417399 3.027913
2005-03-07 07:55:18 51°17.006 2°52.696 3.031 2.72171 29.386598 3.027913
2005-03-07 07:55:24 51°17.025 2°52.683 3.0286 2.724866 29.421657 3.061623
2005-03-07 07:55:28 51°17.039 2°52.674 3.0291 2.727707 29.453785 2.994204
2005-03-07 07:55:34 51°17.058 2°52.662 3.0351 2.729601 29.473834 2.960494
2005-03-07 07:55:38 51°17.072 2°52.652 3.036 2.729601 29.473834 2.960494
2005-03-07 07:55:43 51°17.088 2°52.642 3.0323 2.726024 29.431308 3.061623
2005-03-07 07:55:49 51°17.105 2°52.631 3.0338 2.727602 29.449246 3.027913
2005-03-07 07:55:52 51°17.116 2°52.624 3.0348 2.730022 29.476369 2.994204
2005-03-07 07:55:59 51°17.138 2°52.61 3.0326 2.723078 29.393831 2.994204
2005-03-07 07:56:03 51°17.152 2°52.601 3.0335 2.728443 29.456786 2.960494
2005-03-07 07:56:08 51°17.168 2°52.59 3.0344 2.728443 29.456786 2.960494
2005-03-07 07:56:13 51°17.181 2°52.581 3.0371 2.727181 29.440135 2.960494
2005-03-07 07:56:17 51°17.196 2°52.57 3.0356 2.728233 29.452641 2.893076
2005-03-07 07:56:24 51°17.218 2°52.556 3.0299 2.732441 29.501023 2.825657
2005-03-07 07:56:28 51°17.232 2°52.547 3.0284 2.732967 29.508101 2.859366
2005-03-07 07:56:33 51°17.248 2°52.537 3.0284 2.728233 29.451819 2.893076
2005-03-07 07:56:38 51°17.264 2°52.526 3.0273 2.728233 29.451819 2.893076
2005-03-07 07:56:43 51°17.28 2°52.515 3.0255 2.72918 29.463074 2.926785
2005-03-07 07:56:48 51°17.296 2°52.504 3.0259 2.730653 29.478938 2.893076
2005-03-07 07:56:54 51°17.315 2°52.491 3.0279 2.729916 29.471006 2.893076
2005-03-07 07:56:58 51°17.327 2°52.483 3.0318 2.732021 29.496843 2.893076
2005-03-07 07:57:04 51°17.346 2°52.47 3.0264 2.731179 29.489306 2.893076
2005-03-07 07:57:08 51°17.361 2°52.46 3.0303 2.731179 29.489306 2.893076
2005-03-07 07:57:12 51°17.374 2°52.451 3.0251 2.730968 29.489273 2.859366
2005-03-07 07:57:18 51°17.394 2°52.438 3.0236 2.727391 29.447567 2.859366
2005-03-07 07:57:23 51°17.408 2°52.429 3.0282 2.730863 29.489668 2.825657
2005-03-07 07:57:28 51°17.427 2°52.416 3.0313 2.72939 29.472154 2.758238
2005-03-07 07:57:34 51°17.445 2°52.406 3.0353 2.728549 29.461325 2.690819
2005-03-07 07:57:39 51°17.461 2°52.399 3.0289 2.728549 29.461325 2.690819
2005-03-07 07:57:44 51°17.479 2°52.391 3.0331 2.730442 29.483841 2.791947
2005-03-07 07:57:48 51°17.493 2°52.386 3.0313 2.722236 29.386289 2.791947
2005-03-07 07:57:53 51°17.51 2°52.379 3.0332 2.72939 29.4738 2.758238
2005-03-07 07:57:58 51°17.527 2°52.374 3.0312 2.72697 29.442564 2.758238
2005-03-07 07:58:03 51°17.545 2°52.368 3.025 2.732652 29.507642 2.724529
2005-03-07 07:58:08 51°17.562 2°52.363 3.0277 2.732652 29.507642 2.724529
2005-03-07 07:58:13 51°17.578 2°52.357 3.025 2.731074 29.487232 2.758238
2005-03-07 07:58:18 51°17.593 2°52.352 3.0255 2.730863 29.485553 2.724529
2005-03-07 07:58:24 51°17.615 2°52.345 3.0235 2.730127 29.475152 2.791947
2005-03-07 07:58:29 51°17.632 2°52.339 3.0275 2.7316 29.493486 2.758238
2005-03-07 07:58:32 51°17.643 2°52.336 3.0261 2.731389 29.493453 2.758238
2005-03-07 07:58:36 51°17.657 2°52.332 3.0269 2.731389 29.493453 2.758238
2005-03-07 07:58:44 51°17.683 2°52.323 3.0283 2.730758 29.485948 2.758238
2005-03-07 07:58:49 51°17.701 2°52.317 3.0242 2.732336 29.507182 2.791947
2005-03-07 07:58:52 51°17.713 2°52.314 3.0303 2.733388 29.522166 2.724529
2005-03-07 07:58:59 51°17.736 2°52.306 3.0266 2.7316 29.501718 2.791947
2005-03-07 07:59:03 51°17.75 2°52.302 3.0326 2.730337 29.485882 2.791947
2005-03-07 07:59:08 51°17.766 2°52.298 3.0305 2.730337 29.485882 2.791947
2005-03-07 07:59:14 51°17.787 2°52.292 3.0366 2.730969 29.493388 2.758238
2005-03-07 07:59:19 51°17.805 2°52.288 3.0406 2.733073 29.518412 2.791947
2005-03-07 07:59:23 51°17.821 2°52.285 3.0378 2.730442 29.487133 2.758238
2005-03-07 07:59:28 51°17.838 2°52.283 3.0373 2.731284 29.497142 2.791947
2005-03-07 07:59:33 51°17.856 2°52.281 3.0413 2.731705 29.500499 2.690819
2005-03-07 07:59:39 51°17.876 2°52.279 3.0387 2.731705 29.500499 2.690819
2005-03-07 07:59:43 51°17.891 2°52.277 3.0367 2.731074 29.492993 2.65711
2005-03-07 07:59:48 51°17.907 2°52.275 3.0379 2.733283 29.515148 2.724529
2005-03-07 07:59:54 51°17.928 2°52.273 3.0389 2.732231 29.500168 2.6234
2005-03-07 07:59:59 51°17.947 2°52.271 3.0413 2.729285 29.463503 2.6234
2005-03-07 08:00:03 51°17.961 2°52.272 3.0475 2.732126 29.498094 2.555982
2005-03-07 08:00:08 51°17.978 2°52.272 3.0445 2.732126 29.498094 2.555982
2005-03-07 08:00:14 51°17.998 2°52.272 3.0471 2.732441 29.501846 2.589691
2005-03-07 08:00:18 51°18.014 2°52.273 3.05 2.734125 29.522684 2.6234
2005-03-07 08:00:24 51°18.033 2°52.276 3.0553 2.735177 29.53437 2.555982
2005-03-07 08:00:28 51°18.047 2°52.279 3.0585 2.735177 29.533546 2.690819
2005-03-07 08:00:34 51°18.068 2°52.287 3.0616 2.734756 29.525247 2.6234
2005-03-07 08:00:38 51°18.083 2°52.293 3.0653 2.734756 29.525247 2.6234
2005-03-07 08:00:43 51°18.101 2°52.304 3.0688 2.731705 29.488154 2.589691
2005-03-07 08:00:48 51°18.117 2°52.314 3.0721 2.73423 29.517346 2.6234
2005-03-07 08:00:52 51°18.131 2°52.322 3.0755 2.735913 29.534062 2.65711
2005-03-07 08:00:58 51°18.149 2°52.334 3.0792 2.736545 29.537447 2.690819
2005-03-07 08:01:04 51°18.17 2°52.35 3.0813 2.736124 29.528327 2.65711
2005-03-07 08:01:08 51°18.185 2°52.36 3.0837 2.736124 29.528327 2.65711
2005-03-07 08:01:13 51°18.2 2°52.372 3.0838 2.738964 29.56044 2.791947
2005-03-07 08:01:17 51°18.212 2°52.381 3.0861 2.736018 29.520491 2.791947
2005-03-07 08:01:22 51°18.231 2°52.395 3.0878 2.736229 29.5197 2.859366
2005-03-07 08:01:28 51°18.249 2°52.407 3.088 2.739175 29.553052 2.960494
2005-03-07 08:01:34 51°18.27 2°52.422 3.0913 2.740542 29.565183 2.994204
2005-03-07 08:01:38 51°18.286 2°52.432 3.0935 2.740542 29.565183 2.994204
2005-03-07 08:01:43 51°18.302 2°52.443 3.0969 2.73928 29.548537 2.926785
2005-03-07 08:01:48 51°18.316 2°52.453 3.103 2.73465 29.490265 3.027913
2005-03-07 08:01:54 51°18.338 2°52.467 3.1018 2.740858 29.563989 3.061623
2005-03-07 08:01:59 51°18.353 2°52.478 3.1058 2.740858 29.563165 3.061623
2005-03-07 08:02:03 51°18.367 2°52.488 3.1085 2.741174 29.563619 3.027913
2005-03-07 08:02:08 51°18.383 2°52.499 3.1104 2.741174 29.563619 3.027913
2005-03-07 08:02:14 51°18.405 2°52.513 3.1107 2.742436 29.576143 2.994204
2005-03-07 08:02:18 51°18.42 2°52.523 3.1133 2.740753 29.554504 2.960494
2005-03-07 08:02:23 51°18.435 2°52.535 3.116 2.742962 29.5758 2.926785
2005-03-07 08:02:28 51°18.452 2°52.546 3.1186 2.742121 29.563335 2.893076
2005-03-07 08:02:32 51°18.463 2°52.554 3.1234 2.74433 29.587097 2.893076
2005-03-07 08:02:38 51°18.482 2°52.567 3.1234 2.74433 29.587097 2.893076
2005-03-07 08:02:44 51°18.504 2°52.582 3.1232 2.743593 29.575882 2.859366
2005-03-07 08:02:48 51°18.516 2°52.591 3.125 2.738754 29.515145 2.859366
2005-03-07 08:02:53 51°18.535 2°52.602 3.1257 2.74454 29.581358 2.825657
2005-03-07 08:02:59 51°18.553 2°52.614 3.1268 2.743067 29.562229 2.758238
2005-03-07 08:03:04 51°18.57 2°52.624 3.1279 2.743804 29.568501 2.825657
2005-03-07 08:03:09 51°18.588 2°52.635 3.1313 2.743804 29.568501 2.825657
2005-03-07 08:03:14 51°18.603 2°52.645 3.133 2.74212 29.545233 2.791947
2005-03-07 08:03:18 51°18.618 2°52.652 3.1385 2.745908 29.589357 2.724529
2005-03-07 08:03:24 51°18.639 2°52.667 3.1437 2.741279 29.534424 2.758238
2005-03-07 08:03:28 51°18.654 2°52.676 3.1472 2.745908 29.58771 2.758238
2005-03-07 08:03:33 51°18.669 2°52.686 3.1512 2.746434 29.59313 2.859366
2005-03-07 08:03:38 51°18.687 2°52.697 3.1548 2.746434 29.59313 2.859366
2005-03-07 08:03:41 51°18.698 2°52.704 3.1593 2.743698 29.558202 2.859366
2005-03-07 08:03:49 51°18.723 2°52.72 3.1629 2.74696 29.594431 2.926785
2005-03-07 08:03:54 51°18.739 2°52.731 3.1677 2.748012 29.603621 2.893076
2005-03-07 08:03:58 51°18.753 2°52.741 3.1702 2.748854 29.608665 2.825657
2005-03-07 08:04:03 51°18.77 2°52.752 3.1767 2.74917 29.607468 2.724529
2005-03-07 08:04:08 51°18.788 2°52.764 3.1808 2.74917 29.607468 2.724529
2005-03-07 08:04:14 51°18.803 2°52.775 3.1866 2.751274 29.628309 2.555982
2005-03-07 08:04:18 51°18.818 2°52.785 3.1889 2.754115 29.659532 2.522272
2005-03-07 08:04:23 51°18.835 2°52.797 3.1893 2.755272 29.668311 2.454853
2005-03-07 08:04:28 51°18.852 2°52.806 3.1938 2.756745 29.680832 2.353725
2005-03-07 08:04:34 51°18.869 2°52.818 3.1939 2.757271 29.682945 2.286306
2005-03-07 08:04:39 51°18.888 2°52.829 3.1955 2.757271 29.682945 2.286306
2005-03-07 08:04:44 51°18.903 2°52.839 3.1982 2.756114 29.6651 2.218888
2005-03-07 08:04:48 51°18.918 2°52.849 3.2004 2.760322 29.710048 2.252597
2005-03-07 08:04:53 51°18.935 2°52.86 3.2038 2.762216 29.727548 2.252597
2005-03-07 08:04:59 51°18.953 2°52.872 3.2016 2.764636 29.753759 2.218888
2005-03-07 08:05:02 51°18.965 2°52.88 3.2019 2.767372 29.78454 2.252597
2005-03-07 08:05:08 51°18.985 2°52.893 3.199 2.767372 29.78454 2.252597
2005-03-07 08:05:13 51°19.001 2°52.905 3.2008 2.766109 29.76709 2.286306
2005-03-07 08:05:18 51°19.018 2°52.917 3.2044 2.768319 29.790804 2.252597
2005-03-07 08:05:24 51°19.036 2°52.93 3.2032 2.759796 29.687316 2.252597
2005-03-07 08:05:28 51°19.051 2°52.941 3.2048 2.76653 29.766293 2.320016
2005-03-07 08:05:32 51°19.064 2°52.951 3.2043 2.768319 29.785014 2.286306
2005-03-07 08:05:38 51°19.083 2°52.964 3.2065 2.768319 29.785014 2.286306
2005-03-07 08:05:44 51°19.102 2°52.977 3.2055 2.768108 29.784174 2.353725
2005-03-07 08:05:48 51°19.118 2°52.987 3.2061 2.771265 29.820765 2.252597
2005-03-07 08:05:53 51°19.134 2°52.999 3.2044 2.765057 29.746357 2.286306
2005-03-07 08:05:58 51°19.152 2°53.011 3.2022 2.770528 29.811206 2.286306
2005-03-07 08:06:04 51°19.17 2°53.023 3.2057 2.768634 29.787929 2.286306
2005-03-07 08:06:09 51°19.186 2°53.035 3.2038 2.768634 29.787929 2.286306
2005-03-07 08:06:12 51°19.197 2°53.042 3.2096 2.769897 29.800413 2.218888
2005-03-07 08:06:18 51°19.213 2°53.055 3.2119 2.766635 29.760104 2.353725
2005-03-07 08:06:24 51°19.234 2°53.071 3.2091 2.769581 29.796672 2.252597
2005-03-07 08:06:28 51°19.248 2°53.08 3.2061 2.771896 29.823281 2.320016
2005-03-07 08:06:33 51°19.263 2°53.09 3.2025 2.771686 29.82327 2.320016
2005-03-07 08:06:38 51°19.279 2°53.1 3.2057 2.771686 29.82327 2.320016
2005-03-07 08:06:44 51°19.298 2°53.114 3.2045 2.77116 29.815379 2.286306
2005-03-07 08:06:48 51°19.313 2°53.124 3.2056 2.772633 29.831184 2.353725
2005-03-07 08:06:54 51°19.331 2°53.137 3.2032 2.769266 29.791277 2.353725
2005-03-07 08:06:57 51°19.343 2°53.144 3.208 2.772948 29.834925 2.353725
2005-03-07 08:07:04 51°19.365 2°53.158 3.2039 2.773369 29.841571 2.353725
2005-03-07 08:07:08 51°19.376 2°53.168 3.2056 2.773369 29.841571 2.353725
2005-03-07 08:07:14 51°19.398 2°53.183 3.2071 2.775368 29.866101 2.353725
2005-03-07 08:07:18 51°19.41 2°53.192 3.2062 2.765057 29.743879 2.353725
2005-03-07 08:07:22 51°19.422 2°53.202 3.2075 2.776631 29.881901 2.320016
2005-03-07 08:07:28 51°19.442 2°53.216 3.2033 2.774211 29.852379 2.286306
2005-03-07 08:07:32 51°19.455 2°53.226 3.2043 2.776315 29.877328 2.320016
2005-03-07 08:07:39 51°19.477 2°53.24 3.203 2.776315 29.877328 2.320016
2005-03-07 08:07:44 51°19.492 2°53.251 3.2056 2.775684 29.868185 2.286306
2005-03-07 08:07:48 51°19.505 2°53.261 3.2076 2.77621 29.874422 2.252597
2005-03-07 08:07:53 51°19.524 2°53.273 3.2081 2.774001 29.848227 2.286306
2005-03-07 08:07:58 51°19.538 2°53.283 3.2061 2.775579 29.866108 2.286306
2005-03-07 08:08:04 51°19.559 2°53.298 3.2086 2.780735 29.928901 2.218888
2005-03-07 08:08:08 51°19.574 2°53.308 3.2088 2.780735 29.928901 2.218888
2005-03-07 08:08:14 51°19.592 2°53.319 3.2075 2.779472 29.913928 2.252597
2005-03-07 08:08:18 51°19.608 2°53.331 3.2024 2.780103 29.922245 2.252597
2005-03-07 08:08:24 51°19.625 2°53.342 3.2001 2.779262 29.910602 2.286306
2005-03-07 08:08:29 51°19.641 2°53.354 3.1984 2.777894 29.893553 2.320016
2005-03-07 08:08:32 51°19.652 2°53.363 3.1979 2.781261 29.934309 2.320016
2005-03-07 08:08:38 51°19.673 2°53.376 3.1905 2.781261 29.934309 2.320016
2005-03-07 08:08:44 51°19.688 2°53.386 3.1911 2.772948 29.834925 2.286306
2005-03-07 08:08:48 51°19.704 2°53.397 3.1874 2.782313 29.946787 2.320016
2005-03-07 08:08:54 51°19.722 2°53.409 3.1884 2.780209 29.923493 2.353725
2005-03-07 08:08:58 51°19.734 2°53.418 3.1877 2.78326 29.959682 2.286306
2005-03-07 08:09:04 51°19.754 2°53.431 3.1805 2.784628 29.9809 2.252597
2005-03-07 08:09:08 51°19.768 2°53.44 3.1821 2.784628 29.9809 2.252597
2005-03-07 08:09:13 51°19.785 2°53.452 3.1823 2.783576 29.96925 2.252597
2005-03-07 08:09:19 51°19.803 2°53.463 3.1813 2.784944 29.989641 2.252597
2005-03-07 08:09:24 51°19.819 2°53.475 3.1798 2.785891 30.003378 2.151469
2005-03-07 08:09:28 51°19.834 2°53.484 3.1791 2.782103 29.960093 2.185178
2005-03-07 08:09:33 51°19.851 2°53.496 3.1779 2.78305 29.974661 2.08405
2005-03-07 08:09:39 51°19.869 2°53.508 3.179 2.78305 29.974661 2.08405
2005-03-07 08:09:44 51°19.886 2°53.52 3.1806 2.784944 29.998805 2.050341
2005-03-07 08:09:48 51°19.9 2°53.53 3.1797 2.783786 29.985901 2.016631
2005-03-07 08:09:52 51°19.913 2°53.54 3.1787 2.787469 30.03045 2.08405
2005-03-07 08:09:56 51°19.926 2°53.548 3.1778 2.782524 29.97258 2.016631
2005-03-07 08:10:03 51°19.948 2°53.563 3.1787 2.784733 29.998807 1.982922
2005-03-07 08:10:09 51°19.966 2°53.576 3.1765 2.784733 29.998807 1.982922
2005-03-07 08:10:13 51°19.98 2°53.587 3.178 2.784628 29.999225 1.982922
2005-03-07 08:10:18 51°19.995 2°53.6 3.178 2.785996 30.01463 2.050341
2005-03-07 08:10:24 51°20.012 2°53.612 3.178 2.777684 29.91597 1.915503
2005-03-07 08:10:28 51°20.026 2°53.621 3.176 2.770739 29.835237 2.016631
2005-03-07 08:10:34 51°20.043 2°53.634 3.177 2.786733 30.025042 1.949212
2005-03-07 08:10:38 51°20.059 2°53.644 3.1772 2.786733 30.025042 1.949212
2005-03-07 08:10:44 51°20.077 2°53.657 3.1788 2.788522 30.046281 1.982922
2005-03-07 08:10:48 51°20.091 2°53.667 3.1852 2.78547 30.010052 1.949212
2005-03-07 08:10:54 51°20.11 2°53.678 3.1878 2.785891 30.016717 1.949212
2005-03-07 08:10:59 51°20.127 2°53.691 3.1876 2.78789 30.040454 2.016631
2005-03-07 08:11:03 51°20.142 2°53.7 3.1848 2.787259 30.034627 1.949212
2005-03-07 08:11:08 51°20.157 2°53.711 3.1929 2.787259 30.034627 1.949212
2005-03-07 08:11:14 51°20.177 2°53.724 3.1931 2.786733 30.027545 1.982922
2005-03-07 08:11:19 51°20.193 2°53.735 3.1894 2.788522 30.04795 1.982922
2005-03-07 08:11:24 51°20.21 2°53.748 3.1891 2.788732 30.04711 1.982922
2005-03-07 08:11:28 51°20.225 2°53.758 3.1923 2.789469 30.05168 1.982922
2005-03-07 08:11:34 51°20.244 2°53.772 3.1945 2.789153 30.047933 1.915503
2005-03-07 08:11:39 51°20.262 2°53.784 3.1944 2.789153 30.047933 1.915503
2005-03-07 08:11:44 51°20.277 2°53.796 3.195 2.787259 30.022113 1.982922
2005-03-07 08:11:48 51°20.294 2°53.806 3.1942 2.78326 29.972995 1.949212
2005-03-07 08:11:54 51°20.312 2°53.819 3.1976 2.78526 29.996719 1.915503
2005-03-07 08:11:58 51°20.327 2°53.829 3.1978 2.789574 30.048756 1.949212
2005-03-07 08:12:04 51°20.346 2°53.841 3.1989 2.789363 30.045423 1.949212
2005-03-07 08:12:09 51°20.361 2°53.852 3.1977 2.789363 30.045423 1.949212
2005-03-07 08:12:12 51°20.373 2°53.86 3.2013 2.790416 30.057079 1.949212
2005-03-07 08:12:18 51°20.394 2°53.874 3.2009 2.790626 30.058742 2.117759
2005-03-07 08:12:24 51°20.409 2°53.884 3.2011 2.795572 30.117451 1.982922
2005-03-07 08:12:29 51°20.426 2°53.896 3.2029 2.790415 30.054574 1.949212
2005-03-07 08:12:33 51°20.44 2°53.907 3.2019 2.785786 29.997964 1.949212
2005-03-07 08:12:39 51°20.458 2°53.919 3.1969 2.785786 29.997964 1.949212
2005-03-07 08:12:44 51°20.473 2°53.931 3.1946 2.793362 30.08704 1.982922
2005-03-07 08:12:49 51°20.489 2°53.942 3.1972 2.793888 30.091613 1.915503
2005-03-07 08:12:52 51°20.5 2°53.95 3.1944 2.794519 30.099107 1.982922
2005-03-07 08:12:58 51°20.518 2°53.963 3.194 2.796518 30.121166 1.881794
2005-03-07 08:13:03 51°20.536 2°53.975 3.1949 2.795677 30.11201 1.881794
2005-03-07 08:13:08 51°20.551 2°53.985 3.1939 2.795677 30.11201 1.881794
2005-03-07 08:13:14 51°20.571 2°53.999 3.1913 2.794835 30.104526 1.881794
2005-03-07 08:13:18 51°20.584 2°54.008 3.1918 2.793151 30.085377 1.814375
2005-03-07 08:13:24 51°20.605 2°54.022 3.194 2.796413 30.125772 1.814375
2005-03-07 08:13:28 51°20.62 2°54.032 3.1869 2.793677 30.094129 1.746956
2005-03-07 08:13:34 51°20.638 2°54.044 3.1913 2.795992 30.120775 1.746956
2005-03-07 08:13:38 51°20.651 2°54.053 3.1901 2.795992 30.120775 1.746956
2005-03-07 08:13:43 51°20.67 2°54.067 3.1893 2.792836 30.084972 1.746956
2005-03-07 08:13:48 51°20.686 2°54.078 3.1895 2.795992 30.123285 1.645828
2005-03-07 08:13:53 51°20.702 2°54.09 3.182 2.796308 30.126196 1.713247
2005-03-07 08:13:58 51°20.719 2°54.101 3.1814 2.795782 30.11995 1.679537
2005-03-07 08:14:03 51°20.736 2°54.112 3.1774 2.795045 30.11455 1.746956
2005-03-07 08:14:08 51°20.751 2°54.121 3.1769 2.795045 30.11455 1.746956
2005-03-07 08:14:12 51°20.766 2°54.132 3.1777 2.795256 30.117049 1.746956
2005-03-07 08:14:17 51°20.782 2°54.143 3.1757 2.796203 30.127457 1.780665
2005-03-07 08:14:23 51°20.802 2°54.158 3.1731 2.796098 30.128718 1.713247
2005-03-07 08:14:29 51°20.822 2°54.171 3.1727 2.796098 30.132903 1.713247
2005-03-07 08:14:34 51°20.838 2°54.182 3.1747 2.796203 30.136665 1.780665
2005-03-07 08:14:38 51°20.853 2°54.193 3.1724 2.796203 30.136665 1.780665
2005-03-07 08:14:43 51°20.87 2°54.204 3.1732 2.795361 30.130015 1.814375
2005-03-07 08:14:49 51°20.888 2°54.216 3.1724 2.798413 30.167942 1.814375
2005-03-07 08:14:52 51°20.899 2°54.223 3.1713 2.797466 30.157529 1.848084
2005-03-07 08:14:59 51°20.919 2°54.238 3.1678 2.793678 30.113364 1.848084
2005-03-07 08:15:03 51°20.934 2°54.248 3.1644 2.796729 30.149616 1.848084
2005-03-07 08:15:08 51°20.95 2°54.261 3.1659 2.796729 30.149616 1.848084
2005-03-07 08:15:12 51°20.963 2°54.271 3.1638 2.794519 30.123364 1.848084
2005-03-07 08:15:17 51°20.978 2°54.282 3.1617 2.796098 30.142115 1.814375
2005-03-07 08:15:22 51°20.996 2°54.297 3.1609 2.794309 30.120864 1.814375
2005-03-07 08:15:28 51°21.014 2°54.312 3.161 2.79494 30.130039 1.814375
2005-03-07 08:15:34 51°21.031 2°54.327 3.1615 2.791468 30.091298 1.814375
2005-03-07 08:15:38 51°21.045 2°54.337 3.1595 2.791468 30.091298 1.814375
2005-03-07 08:15:43 51°21.063 2°54.351 3.1575 2.793888 30.122561 1.814375
2005-03-07 08:15:48 51°21.078 2°54.363 3.1552 2.794625 30.132151 1.814375
2005-03-07 08:15:54 51°21.096 2°54.379 3.1611 2.793152 30.115484 1.848084
2005-03-07 08:15:58 51°21.109 2°54.388 3.1598 2.794099 30.127574 1.746956
2005-03-07 08:16:04 51°21.129 2°54.403 3.1584 2.795782 30.150095 1.746956
2005-03-07 08:16:08 51°21.144 2°54.415 3.1599 2.795782 30.150095 1.746956
2005-03-07 08:16:12 51°21.157 2°54.425 3.1655 2.795256 30.144681 1.746956
2005-03-07 08:16:19 51°21.178 2°54.442 3.1667 2.791468 30.100501 1.814375
2005-03-07 08:16:24 51°21.195 2°54.454 3.1703 2.795151 30.145106 1.780665
2005-03-07 08:16:28 51°21.209 2°54.465 3.1719 2.795151 30.145106 1.780665
2005-03-07 08:16:34 51°21.229 2°54.48 3.1766 2.793573 30.126347 1.780665
2005-03-07 08:16:39 51°21.246 2°54.494 3.1759 2.793573 30.126347 1.780665
2005-03-07 08:16:43 51°21.261 2°54.506 3.1732 2.794309 30.134263 1.713247
2005-03-07 08:16:49 51°21.276 2°54.52 3.178 2.791258 30.09549 1.780665
2005-03-07 08:16:54 51°21.293 2°54.534 3.1771 2.797361 30.166338 1.746956
2005-03-07 08:16:58 51°21.305 2°54.543 3.1774 2.794099 30.125062 1.780665
2005-03-07 08:17:03 51°21.324 2°54.559 3.1779 2.796098 30.145466 1.713247
2005-03-07 08:17:08 51°21.339 2°54.571 3.182 2.796098 30.145466 1.713247
2005-03-07 08:17:14 51°21.357 2°54.587 3.1851 2.79494 30.130876 1.780665
2005-03-07 08:17:18 51°21.371 2°54.598 3.1857 2.795361 30.135039 1.814375
2005-03-07 08:17:24 51°21.389 2°54.612 3.1857 2.797676 30.158353 1.814375
2005-03-07 08:17:29 51°21.407 2°54.626 3.1884 2.796624 30.14669 1.814375
2005-03-07 08:17:33 51°21.421 2°54.638 3.188 2.796624 30.14669 1.881794
2005-03-07 08:17:38 51°21.436 2°54.65 3.1911 2.796624 30.14669 1.881794
2005-03-07 08:17:44 51°21.457 2°54.667 3.1917 2.799044 30.172928 1.848084
2005-03-07 08:17:49 51°21.473 2°54.679 3.1962 2.795151 30.125004 1.881794
2005-03-07 08:17:54 51°21.489 2°54.691 3.1973 2.797781 30.1529 1.848084
2005-03-07 08:17:59 51°21.505 2°54.705 3.2026 2.799465 30.172898 1.915503
2005-03-07 08:18:04 51°21.523 2°54.72 3.2043 2.802937 30.21331 1.881794
2005-03-07 08:18:09 51°21.539 2°54.732 3.209 2.802937 30.21331 1.881794
2005-03-07 08:18:14 51°21.555 2°54.746 3.2116 2.798939 30.164134 1.915503
2005-03-07 08:18:19 51°21.572 2°54.759 3.2114 2.800622 30.182455 1.848084
2005-03-07 08:18:24 51°21.586 2°54.772 3.2142 2.799991 30.171604 1.915503
2005-03-07 08:18:28 51°21.602 2°54.784 3.2193 2.799781 30.165753 1.848084
2005-03-07 08:18:33 51°21.617 2°54.796 3.2204 2.801464 30.182393 1.982922
2005-03-07 08:18:38 51°21.636 2°54.811 3.2226 2.801464 30.182393 1.982922
2005-03-07 08:18:44 51°21.653 2°54.824 3.228 2.800517 30.168635 1.881794
2005-03-07 08:18:48 51°21.668 2°54.838 3.2345 2.803253 30.196927 1.848084
2005-03-07 08:18:54 51°21.687 2°54.851 3.2364 2.800517 30.162773 1.814375
2005-03-07 08:18:58 51°21.699 2°54.862 3.238 2.802937 30.188989 1.848084
2005-03-07 08:19:04 51°21.718 2°54.877 3.24 2.802306 30.178144 1.814375
2005-03-07 08:19:08 51°21.733 2°54.889 3.2431 2.802306 30.178144 1.814375
2005-03-07 08:19:14 51°21.752 2°54.903 3.2456 2.804305 30.200198 1.814375
2005-03-07 08:19:18 51°21.767 2°54.915 3.2467 2.804516 30.197668 1.780665
2005-03-07 08:19:24 51°21.784 2°54.929 3.2483 2.805883 30.209712 1.780665
2005-03-07 08:19:28 51°21.8 2°54.941 3.2519 2.803884 30.181801 1.780665
2005-03-07 08:19:34 51°21.817 2°54.955 3.2557 2.808304 30.231724 1.848084
2005-03-07 08:19:39 51°21.835 2°54.97 3.2564 2.808304 30.231724 1.848084
2005-03-07 08:19:43 51°21.849 2°54.981 3.2616 2.809672 30.246279 1.881794
2005-03-07 08:19:48 51°21.864 2°54.994 3.2592 2.807988 30.22211 1.949212
2005-03-07 08:19:52 51°21.878 2°55.005 3.2621 2.810303 30.247059 2.016631
2005-03-07 08:19:59 51°21.9 2°55.021 3.2624 2.809251 30.232899 2.016631
2005-03-07 08:20:03 51°21.914 2°55.032 3.265 2.805462 30.184619 2.08405
2005-03-07 08:20:08 51°21.929 2°55.043 3.2683 2.805462 30.184619 2.08405
2005-03-07 08:20:14 51°21.949 2°55.056 3.2668 2.810619 30.243257 2.08405
2005-03-07 08:20:18 51°21.964 2°55.068 3.2696 2.808514 30.215783 2.050341
2005-03-07 08:20:24 51°21.984 2°55.08 3.274 2.813039 30.267769 2.050341
2005-03-07 08:20:28 51°21.998 2°55.09 3.2755 2.811566 30.247782 2.117759
2005-03-07 08:20:34 51°22.017 2°55.104 3.2747 2.808303 30.208264 2.08405
2005-03-07 08:20:38 51°22.03 2°55.112 3.2787 2.808303 30.208264 2.08405
2005-03-07 08:20:44 51°22.05 2°55.126 3.2777 2.81146 30.243181 2.117759
2005-03-07 08:20:48 51°22.063 2°55.134 3.2796 2.808093 30.201583 2.151469
2005-03-07 08:20:53 51°22.082 2°55.147 3.2818 2.813565 30.263105 2.218888
2005-03-07 08:20:58 51°22.098 2°55.158 3.2848 2.815143 30.280981 2.218888
2005-03-07 08:21:04 51°22.116 2°55.17 3.2884 2.81346 30.259342 2.252597
2005-03-07 08:21:08 51°22.132 2°55.181 3.2923 2.81346 30.259342 2.252597
2005-03-07 08:21:14 51°22.149 2°55.193 3.2919 2.814407 30.268054 2.320016
2005-03-07 08:21:19 51°22.166 2°55.204 3.2922 2.813039 30.251 2.286306
2005-03-07 08:21:23 51°22.18 2°55.215 3.2951 2.810724 30.22021 2.218888
2005-03-07 08:21:29 51°22.198 2°55.228 3.2973 2.808198 30.18861 2.252597
2005-03-07 08:21:34 51°22.215 2°55.24 3.3 2.812723 30.238044 2.117759
2005-03-07 08:21:38 51°22.228 2°55.249 3.303 2.812723 30.238044 2.117759
2005-03-07 08:21:44 51°22.25 2°55.263 3.3023 2.816406 30.280015 2.151469
2005-03-07 08:21:49 51°22.265 2°55.275 3.3053 2.813565 30.242995 2.08405
2005-03-07 08:21:53 51°22.278 2°55.285 3.3062 2.820931 30.330288 2.117759
2005-03-07 08:21:58 51°22.298 2°55.298 3.309 2.817248 30.28496 2.08405
2005-03-07 08:22:03 51°22.314 2°55.31 3.3101 2.819984 30.314866 2.117759
2005-03-07 08:22:09 51°22.333 2°55.324 3.3106 2.819984 30.314866 2.117759
2005-03-07 08:22:14 51°22.35 2°55.334 3.3131 2.820931 30.323572 2.08405
2005-03-07 08:22:18 51°22.363 2°55.344 3.314 2.819142 30.300696 2.117759
2005-03-07 08:22:24 51°22.383 2°55.359 3.3169 2.814722 30.246661 2.151469
2005-03-07 08:22:28 51°22.399 2°55.37 3.3178 2.820825 30.317289 2.185178
2005-03-07 08:22:34 51°22.417 2°55.383 3.3187 2.821983 30.328486 2.117759
2005-03-07 08:22:38 51°22.433 2°55.395 3.3205 2.821983 30.328486 2.117759
2005-03-07 08:22:44 51°22.452 2°55.408 3.3223 2.822719 30.336375 2.117759
2005-03-07 08:22:48 51°22.464 2°55.417 3.326 2.823246 30.34009 2.117759
2005-03-07 08:22:54 51°22.482 2°55.432 3.3299 2.823351 30.338818 2.151469
2005-03-07 08:22:58 51°22.494 2°55.443 3.3325 2.823246 30.336732 2.08405
2005-03-07 08:23:04 51°22.514 2°55.457 3.3303 2.827244 30.382426 2.151469
2005-03-07 08:23:08 51°22.528 2°55.468 3.3319 2.827244 30.382426 2.151469
2005-03-07 08:23:13 51°22.543 2°55.48 3.3345 2.824403 30.347086 2.08405
2005-03-07 08:23:18 51°22.56 2°55.491 3.3368 2.825982 30.363265 2.08405
2005-03-07 08:23:24 51°22.579 2°55.506 3.3393 2.825876 30.360339 2.08405
2005-03-07 08:23:28 51°22.593 2°55.516 3.3407 2.826508 30.364458 2.117759
2005-03-07 08:23:34 51°22.612 2°55.53 3.3452 2.823877 30.331624 2.08405
2005-03-07 08:23:38 51°22.626 2°55.54 3.3494 2.823877 30.331624 2.08405
2005-03-07 08:23:44 51°22.643 2°55.555 3.3527 2.82756 30.374401 2.08405
2005-03-07 08:23:49 51°22.661 2°55.568 3.354 2.831033 30.413851 2.050341
2005-03-07 08:23:53 51°22.673 2°55.578 3.3591 2.825981 30.351511 2.050341
2005-03-07 08:23:58 51°22.691 2°55.59 3.3627 2.828402 30.376811 2.117759
2005-03-07 08:24:03 51°22.706 2°55.602 3.3675 2.830296 30.39672 2.050341
2005-03-07 08:24:09 51°22.725 2°55.614 3.3731 2.830296 30.39672 2.050341
2005-03-07 08:24:14 51°22.74 2°55.627 3.3756 2.830927 30.399154 2.151469
2005-03-07 08:24:19 51°22.758 2°55.638 3.378 2.833032 30.42071 2.117759
2005-03-07 08:24:24 51°22.774 2°55.649 3.3821 2.833663 30.425663 2.050341
2005-03-07 08:24:28 51°22.789 2°55.661 3.385 2.833663 30.4223 2.050341
2005-03-07 08:24:33 51°22.806 2°55.671 3.3859 2.831664 30.395274 2.08405
2005-03-07 08:24:38 51°22.823 2°55.684 3.3899 2.831664 30.395274 2.08405
2005-03-07 08:24:43 51°22.84 2°55.695 3.3949 2.835031 30.430927 1.982922
2005-03-07 08:24:48 51°22.855 2°55.705 3.3974 2.83903 30.473209 2.016631
2005-03-07 08:24:54 51°22.877 2°55.719 3.4009 2.837872 30.455303 2.050341
2005-03-07 08:24:59 51°22.893 2°55.729 3.4076 2.837978 30.453184 2.08405
2005-03-07 08:25:02 51°22.905 2°55.738 3.4108 2.83661 30.433636 2.117759
2005-03-07 08:25:08 51°22.921 2°55.752 3.4157 2.83661 30.433636 2.117759
2005-03-07 08:25:14 51°22.943 2°55.767 3.417 2.840819 30.480914 2.151469
2005-03-07 08:25:19 51°22.958 2°55.778 3.421 2.838925 30.4543 2.218888
2005-03-07 08:25:24 51°22.976 2°55.79 3.4235 2.842187 30.488684 2.185178
2005-03-07 08:25:29 51°22.99 2°55.801 3.4273 2.842082 30.482391 2.320016
2005-03-07 08:25:33 51°23.006 2°55.813 3.4329 2.840713 30.460328 2.286306
2005-03-07 08:25:38 51°23.023 2°55.825 3.4377 2.840713 30.460328 2.286306
2005-03-07 08:25:43 51°23.038 2°55.836 3.4425 2.839766 30.44493 2.286306
2005-03-07 08:25:49 51°23.055 2°55.849 3.4464 2.845449 30.508753 2.353725
2005-03-07 08:25:53 51°23.069 2°55.858 3.4526 2.843029 30.475933 2.353725
2005-03-07 08:25:59 51°23.09 2°55.873 3.4568 2.846607 30.515707 2.421144
2005-03-07 08:26:04 51°23.107 2°55.884 3.4608 2.845238 30.494489 2.387435
2005-03-07 08:26:08 51°23.122 2°55.894 3.4665 2.845238 30.494489 2.387435
2005-03-07 08:26:13 51°23.139 2°55.906 3.4702 2.847027 30.510587 2.353725
2005-03-07 08:26:18 51°23.156 2°55.917 3.4752 2.848922 30.528767 2.421144
2005-03-07 08:26:23 51°23.173 2°55.93 3.4793 2.849342 30.527852 2.421144
2005-03-07 08:26:28 51°23.19 2°55.94 3.4816 2.849448 30.524049 2.421144
2005-03-07 08:26:33 51°23.206 2°55.952 3.486 2.852079 30.550923 2.522272
2005-03-07 08:26:38 51°23.223 2°55.964 3.4894 2.852079 30.550923 2.522272
2005-03-07 08:26:42 51°23.236 2°55.974 3.4937 2.853026 30.556221 2.65711
2005-03-07 08:26:49 51°23.259 2°55.99 3.496 2.850921 30.526317 2.555982
2005-03-07 08:26:53 51°23.272 2°56 3.4998 2.854183 30.560636 2.522272
2005-03-07 08:26:58 51°23.286 2°56.011 3.5019 2.854183 30.555588 2.454853
2005-03-07 08:27:04 51°23.305 2°56.024 3.5046 2.857656 30.593227 2.522272
2005-03-07 08:27:09 51°23.32 2°56.036 3.5066 2.857656 30.593227 2.522272
2005-03-07 08:27:14 51°23.339 2°56.048 3.5098 2.858077 30.592303 2.522272
2005-03-07 08:27:19 51°23.353 2°56.06 3.5137 2.858498 30.593064 2.522272
2005-03-07 08:27:24 51°23.37 2°56.07 3.5164 2.862497 30.636902 2.589691
2005-03-07 08:27:28 51°23.383 2°56.08 3.5203 2.85955 30.59791 2.589691
2005-03-07 08:27:34 51°23.404 2°56.094 3.5253 2.864181 30.649193 2.65711
2005-03-07 08:27:38 51°23.418 2°56.105 3.5298 2.864181 30.649193 2.65711
2005-03-07 08:27:44 51°23.436 2°56.118 3.5348 2.859866 30.595744 2.555982
2005-03-07 08:27:48 51°23.45 2°56.127 3.5392 2.861129 30.607279 2.555982
2005-03-07 08:27:54 51°23.47 2°56.142 3.5431 2.864075 30.640366 2.6234
2005-03-07 08:27:58 51°23.484 2°56.152 3.549 2.866811 30.66844 2.589691
2005-03-07 08:28:03 51°23.502 2°56.163 3.5548 2.864286 30.635268 2.6234
2005-03-07 08:28:08 51°23.519 2°56.175 3.5611 2.864286 30.635268 2.6234
2005-03-07 08:28:13 51°23.536 2°56.186 3.5666 2.86839 30.678634 2.589691
2005-03-07 08:28:17 51°23.549 2°56.196 3.5729 2.868811 30.679384 2.589691
2005-03-07 08:28:24 51°23.571 2°56.211 3.5794 2.868811 30.672641 2.522272
2005-03-07 08:28:28 51°23.585 2°56.222 3.5874 2.867548 30.654378 2.555982
2005-03-07 08:28:32 51°23.599 2°56.23 3.5921 2.870495 30.682385 2.589691
2005-03-07 08:28:36 51°23.612 2°56.24 3.5995 2.870495 30.682385 2.589691
2005-03-07 08:28:44 51°23.637 2°56.258 3.6046 2.870389 30.674404 2.522272
2005-03-07 08:28:48 51°23.651 2°56.268 3.6105 2.874494 30.716046 2.454853
2005-03-07 08:28:54 51°23.671 2°56.283 3.6132 2.874494 30.71183 2.454853
2005-03-07 08:28:58 51°23.685 2°56.294 3.6164 2.875546 30.714961 2.387435
2005-03-07 08:29:04 51°23.703 2°56.306 3.6184 2.870179 30.644996 2.320016
2005-03-07 08:29:08 51°23.716 2°56.316 3.6215 2.870179 30.644996 2.320016
2005-03-07 08:29:14 51°23.737 2°56.33 3.6237 2.878914 30.740309 2.218888
2005-03-07 08:29:18 51°23.75 2°56.34 3.6261 2.879545 30.741846 2.252597
2005-03-07 08:29:23 51°23.769 2°56.353 3.6272 2.882176 30.766088 2.151469
2005-03-07 08:29:28 51°23.786 2°56.366 3.6281 2.882281 30.76311 2.117759
2005-03-07 08:29:32 51°23.799 2°56.375 3.6287 2.882281 30.758895 2.117759
2005-03-07 08:29:39 51°23.82 2°56.391 3.6312 2.882281 30.758895 2.117759
2005-03-07 08:29:44 51°23.836 2°56.404 3.6333 2.884596 30.782782 2.016631
2005-03-07 08:29:48 51°23.852 2°56.415 3.6321 2.883333 30.766227 1.982922
2005-03-07 08:29:53 51°23.867 2°56.426 3.6328 2.883965 30.769445 1.949212
2005-03-07 08:29:59 51°23.886 2°56.44 3.6345 2.883018 30.755768 1.949212
2005-03-07 08:30:04 51°23.902 2°56.452 3.6342 2.878703 30.704146 1.982922
2005-03-07 08:30:09 51°23.919 2°56.464 3.6342 2.878703 30.704146 1.982922
2005-03-07 08:30:13 51°23.935 2°56.475 3.6345 2.882491 30.748732 1.949212
2005-03-07 08:30:18 51°23.951 2°56.486 3.636 2.883228 30.754033 1.915503
2005-03-07 08:30:24 51°23.968 2°56.5 3.6371 2.885543 30.781282 1.848084
2005-03-07 08:30:29 51°23.986 2°56.513 3.6359 2.875545 30.661958 1.814375
2005-03-07 08:30:32 51°23.997 2°56.52 3.6349 2.884175 30.763494 1.848084
2005-03-07 08:30:39 51°24.018 2°56.535 3.6362 2.884175 30.763494 1.848084
2005-03-07 08:30:44 51°24.035 2°56.548 3.6381 2.882176 30.739122 1.848084
2005-03-07 08:30:48 51°24.05 2°56.558 3.6386 2.881228 30.726294 1.814375
2005-03-07 08:30:54 51°24.069 2°56.571 3.6387 2.883439 30.750614 1.814375
2005-03-07 08:30:58 51°24.082 2°56.581 3.6384 2.883544 30.751852 1.814375
2005-03-07 08:31:03 51°24.1 2°56.594 3.6389 2.88628 30.78405 1.814375
2005-03-07 08:31:09 51°24.119 2°56.607 3.6403 2.88628 30.78405 1.814375
2005-03-07 08:31:14 51°24.137 2°56.619 3.638 2.882912 30.745264 1.881794
2005-03-07 08:31:18 51°24.15 2°56.628 3.6398 2.883333 30.748533 1.780665
2005-03-07 08:31:23 51°24.166 2°56.64 3.6418 2.885228 30.770823 1.780665
2005-03-07 08:31:29 51°24.185 2°56.654 3.6412 2.878703 30.694897 1.814375
2005-03-07 08:31:34 51°24.201 2°56.666 3.645 2.882176 30.734071 1.814375
2005-03-07 08:31:38 51°24.214 2°56.675 3.6443 2.882176 30.734071 1.814375
2005-03-07 08:31:44 51°24.234 2°56.689 3.6432 2.880597 30.714658 1.814375
2005-03-07 08:31:48 51°24.25 2°56.701 3.6482 2.882386 30.735706 1.814375
2005-03-07 08:31:54 51°24.268 2°56.715 3.6452 2.877966 30.68287 1.881794
2005-03-07 08:31:59 51°24.283 2°56.728 3.6453 2.88428 30.756309 1.814375
2005-03-07 08:32:04 51°24.301 2°56.74 3.6463 2.883965 30.75091 1.814375
2005-03-07 08:32:08 51°24.316 2°56.751 3.6454 2.883965 30.75091 1.814375
2005-03-07 08:32:13 51°24.332 2°56.763 3.6436 2.883754 30.747592 1.848084
2005-03-07 08:32:19 51°24.348 2°56.777 3.6448 2.881544 30.720753 1.915503
2005-03-07 08:32:23 51°24.363 2°56.787 3.6446 2.882596 30.73145 1.949212
2005-03-07 08:32:28 51°24.381 2°56.8 3.6488 2.88407 30.749623 1.881794
2005-03-07 08:32:33 51°24.398 2°56.812 3.6465 2.885859 30.768985 1.814375
2005-03-07 08:32:37 51°24.411 2°56.821 3.6443 2.885859 30.768985 1.814375
2005-03-07 08:32:44 51°24.433 2°56.838 3.6444 2.884491 30.753733 1.915503
2005-03-07 08:32:48 51°24.447 2°56.847 3.6451 2.885333 30.764479 1.881794
2005-03-07 08:32:54 51°24.466 2°56.861 3.6461 2.881649 30.72115 1.881794
2005-03-07 08:32:58 51°24.48 2°56.872 3.6458 2.882912 30.735163 1.881794
2005-03-07 08:33:04 51°24.5 2°56.886 3.6444 2.878808 30.687731 1.915503
2005-03-07 08:33:08 51°24.516 2°56.898 3.6457 2.878808 30.687731 1.915503
2005-03-07 08:33:13 51°24.533 2°56.911 3.6456 2.884807 30.758289 1.881794
2005-03-07 08:33:19 51°24.548 2°56.924 3.6442 2.882386 30.728974 1.848084
2005-03-07 08:33:24 51°24.564 2°56.936 3.6474 2.886911 30.783051 1.881794
2005-03-07 08:33:28 51°24.578 2°56.947 3.645 2.881334 30.718278 1.949212
2005-03-07 08:33:33 51°24.595 2°56.958 3.6432 2.884912 30.759527 1.848084
2005-03-07 08:33:37 51°24.608 2°56.968 3.6445 2.884912 30.759527 1.848084
2005-03-07 08:33:44 51°24.63 2°56.982 3.6458 2.886701 30.778889 1.881794
2005-03-07 08:33:48 51°24.645 2°56.994 3.6455 2.883438 30.740511 1.949212
2005-03-07 08:33:53 51°24.662 2°57.005 3.6442 2.885964 30.770223 1.915503
2005-03-07 08:33:58 51°24.677 2°57.016 3.6486 2.887017 30.783447 1.982922
2005-03-07 08:34:04 51°24.695 2°57.029 3.6501 2.883859 30.747147 1.848084
2005-03-07 08:34:08 51°24.711 2°57.04 3.6461 2.883859 30.747147 1.848084
2005-03-07 08:34:14 51°24.729 2°57.051 3.647 2.886596 30.780179 1.848084
2005-03-07 08:34:19 51°24.745 2°57.061 3.6413 2.883438 30.742195 1.949212
2005-03-07 08:34:24 51°24.763 2°57.074 3.6434 2.886806 30.78097 1.881794
2005-03-07 08:34:28 51°24.778 2°57.083 3.641 2.885438 30.764875 1.881794
2005-03-07 08:34:33 51°24.793 2°57.093 3.641 2.882596 30.728926 1.881794
2005-03-07 08:34:39 51°24.814 2°57.107 3.6405 2.882596 30.728926 1.881794
2005-03-07 08:34:44 51°24.828 2°57.119 3.6388 2.88207 30.721896 1.780665
2005-03-07 08:34:48 51°24.844 2°57.13 3.6384 2.88407 30.746255 1.814375
2005-03-07 08:34:53 51°24.861 2°57.141 3.6365 2.885543 30.765271 1.881794
2005-03-07 08:34:57 51°24.875 2°57.149 3.6348 2.883544 30.743433 1.848084
2005-03-07 08:35:04 51°24.897 2°57.164 3.6338 2.885333 30.766164 1.949212
2005-03-07 08:35:08 51°24.913 2°57.174 3.631 2.885333 30.766164 1.949212
2005-03-07 08:35:12 51°24.926 2°57.183 3.6319 2.887859 30.795881 1.814375
2005-03-07 08:35:19 51°24.948 2°57.197 3.6319 2.881755 30.726594 1.814375
2005-03-07 08:35:24 51°24.964 2°57.208 3.6314 2.885543 30.77201 1.780665
2005-03-07 08:35:29 51°24.982 2°57.219 3.6332 2.883123 30.746057 1.814375
2005-03-07 08:35:34 51°25 2°57.231 3.6319 2.885859 30.778254 1.848084
2005-03-07 08:35:38 51°25.015 2°57.241 3.6326 2.885859 30.778254 1.848084
2005-03-07 08:35:44 51°25.031 2°57.254 3.6307 2.884912 30.768793 1.814375
2005-03-07 08:35:49 51°25.047 2°57.267 3.6314 2.884175 30.759282 1.814375
2005-03-07 08:35:54 51°25.064 2°57.279 3.6315 2.887648 30.800995 1.780665
2005-03-07 08:35:58 51°25.077 2°57.288 3.6311 2.885964 30.782864 1.780665
2005-03-07 08:36:04 51°25.096 2°57.302 3.6307 2.885543 30.777067 1.780665
2005-03-07 08:36:08 51°25.112 2°57.312 3.6314 2.885543 30.777067 1.780665
2005-03-07 08:36:14 51°25.131 2°57.326 3.63 2.884491 30.765525 1.780665
2005-03-07 08:36:19 51°25.148 2°57.335 3.6298 2.884281 30.763048 1.814375
2005-03-07 08:36:23 51°25.163 2°57.345 3.6306 2.877755 30.687116 1.814375
2005-03-07 08:36:28 51°25.18 2°57.356 3.6328 2.878492 30.695783 1.848084
2005-03-07 08:36:33 51°25.197 2°57.368 3.6331 2.879334 30.706529 1.881794
2005-03-07 08:36:38 51°25.213 2°57.377 3.6338 2.879334 30.706529 1.881794
2005-03-07 08:36:42 51°25.229 2°57.388 3.6347 2.879018 30.703656 1.881794
2005-03-07 08:36:48 51°25.245 2°57.399 3.6375 2.880597 30.721388 1.982922
2005-03-07 08:36:54 51°25.267 2°57.414 3.6401 2.885017 30.77256 1.915503
2005-03-07 08:36:58 51°25.283 2°57.423 3.6396 2.886806 30.792773 1.949212
2005-03-07 08:37:04 51°25.301 2°57.435 3.642 2.885649 30.779148 1.982922
2005-03-07 08:37:08 51°25.315 2°57.444 3.644 2.885649 30.779148 1.982922
2005-03-07 08:37:13 51°25.334 2°57.457 3.6431 2.884807 30.767555 2.050341
2005-03-07 08:37:19 51°25.353 2°57.469 3.6455 2.885333 30.772904 2.08405
2005-03-07 08:37:24 51°25.37 2°57.48 3.6494 2.885228 30.771666 2.08405
2005-03-07 08:37:29 51°25.388 2°57.492 3.6475 2.887333 30.793906 2.08405
2005-03-07 08:37:33 51°25.402 2°57.5 3.6523 2.88607 30.778202 2.218888
2005-03-07 08:37:38 51°25.42 2°57.512 3.6545 2.88607 30.778202 2.218888
2005-03-07 08:37:43 51°25.437 2°57.524 3.6562 2.887648 30.795091 2.252597
2005-03-07 08:37:49 51°25.453 2°57.536 3.6565 2.886385 30.778546 2.286306
2005-03-07 08:37:54 51°25.47 2°57.548 3.6572 2.887438 30.789242 2.286306
2005-03-07 08:37:58 51°25.485 2°57.557 3.6597 2.889122 30.806524 2.320016
2005-03-07 08:38:03 51°25.501 2°57.57 3.6595 2.887753 30.789585 2.353725
2005-03-07 08:38:08 51°25.517 2°57.579 3.6652 2.887753 30.789585 2.353725
2005-03-07 08:38:14 51°25.538 2°57.592 3.6682 2.887648 30.784133 2.353725
2005-03-07 08:38:19 51°25.554 2°57.602 3.6715 2.891016 30.822063 2.387435
2005-03-07 08:38:24 51°25.569 2°57.613 3.6751 2.890384 30.814635 2.353725
2005-03-07 08:38:28 51°25.585 2°57.624 3.6769 2.888911 30.79646 2.454853
2005-03-07 08:38:34 51°25.603 2°57.635 3.6797 2.889227 30.798488 2.488563
2005-03-07 08:38:38 51°25.62 2°57.646 3.6813 2.889227 30.798488 2.488563
2005-03-07 08:38:44 51°25.639 2°57.658 3.6845 2.891437 30.821111 2.555982
2005-03-07 08:38:49 51°25.654 2°57.668 3.6877 2.885227 30.743882 2.454853
2005-03-07 08:38:52 51°25.666 2°57.676 3.6911 2.885543 30.743388 2.421144
2005-03-07 08:38:59 51°25.689 2°57.692 3.6938 2.892384 30.821288 2.488563
2005-03-07 08:39:04 51°25.705 2°57.703 3.6972 2.894489 30.843507 2.454853
2005-03-07 08:39:08 51°25.72 2°57.713 3.7002 2.894489 30.843507 2.454853
2005-03-07 08:39:12 51°25.734 2°57.722 3.7022 2.889332 30.77951 2.488563
2005-03-07 08:39:19 51°25.756 2°57.737 3.7094 2.889753 30.781091 2.454853
2005-03-07 08:39:23 51°25.771 2°57.747 3.7121 2.889437 30.774856 2.454853
2005-03-07 08:39:28 51°25.788 2°57.758 3.7164 2.893963 30.824674 2.454853
2005-03-07 08:39:34 51°25.806 2°57.77 3.7197 2.895752 30.84233 2.454853
2005-03-07 08:39:38 51°25.823 2°57.781 3.723 2.895752 30.84233 2.454853
2005-03-07 08:39:44 51°25.842 2°57.793 3.7263 2.892384 30.799384 2.488563
2005-03-07 08:39:48 51°25.855 2°57.802 3.7284 2.895962 30.838903 2.555982
2005-03-07 08:39:53 51°25.873 2°57.814 3.7305 2.895225 30.826876 2.488563
2005-03-07 08:39:59 51°25.893 2°57.827 3.7326 2.895541 30.825531 2.522272
2005-03-07 08:40:03 51°25.906 2°57.836 3.7348 2.897962 30.848912 2.522272
2005-03-07 08:40:09 51°25.926 2°57.848 3.7377 2.897962 30.848912 2.522272
2005-03-07 08:40:13 51°25.939 2°57.857 3.7411 2.893226 30.78992 2.488563
2005-03-07 08:40:18 51°25.959 2°57.869 3.7448 2.900593 30.873074 2.454853
2005-03-07 08:40:23 51°25.974 2°57.88 3.7469 2.899014 30.851162 2.454853
2005-03-07 08:40:29 51°25.992 2°57.891 3.7509 2.890384 30.745637 2.488563
2005-03-07 08:40:33 51°26.007 2°57.902 3.7555 2.900066 30.857623 2.555982
2005-03-07 08:40:39 51°26.027 2°57.915 3.756 2.900066 30.857623 2.555982
2005-03-07 08:40:44 51°26.042 2°57.924 3.7603 2.899224 30.844368 2.454853
2005-03-07 08:40:48 51°26.056 2°57.933 3.7611 2.899435 30.843471 2.387435
2005-03-07 08:40:52 51°26.071 2°57.943 3.7643 2.903329 30.885816 2.387435
2005-03-07 08:40:56 51°26.085 2°57.952 3.7655 2.901329 30.858972 2.421144
2005-03-07 08:41:03 51°26.109 2°57.968 3.768 2.895646 30.789753 2.421144
2005-03-07 08:41:09 51°26.128 2°57.979 3.7697 2.895646 30.789753 2.421144
2005-03-07 08:41:14 51°26.145 2°57.991 3.7725 2.900382 30.841121 2.421144
2005-03-07 08:41:18 51°26.16 2°58 3.7744 2.908907 30.938646 2.454853
2005-03-07 08:41:23 51°26.177 2°58.012 3.7766 2.904908 30.890018 2.454853
2005-03-07 08:41:28 51°26.193 2°58.024 3.78 2.900382 30.83355 2.387435
2005-03-07 08:41:34 51°26.212 2°58.036 3.7794 2.905539 30.89153 2.454853
2005-03-07 08:41:38 51°26.227 2°58.046 3.781 2.905539 30.89153 2.454853
2005-03-07 08:41:44 51°26.245 2°58.06 3.7821 2.90396 30.869639 2.387435
2005-03-07 08:41:48 51°26.259 2°58.068 3.7839 2.90596 30.890572 2.421144
2005-03-07 08:41:54 51°26.279 2°58.083 3.7839 2.908696 30.92099 2.454853
2005-03-07 08:41:58 51°26.293 2°58.092 3.7877 2.907328 30.901568 2.454853
2005-03-07 08:42:03 51°26.312 2°58.104 3.7882 2.906276 30.886696 2.454853
2005-03-07 08:42:08 51°26.329 2°58.115 3.7899 2.906276 30.886696 2.454853
2005-03-07 08:42:14 51°26.348 2°58.127 3.7914 2.909433 30.922888 2.454853
2005-03-07 08:42:19 51°26.365 2°58.138 3.7913 2.906381 30.885404 2.421144
2005-03-07 08:42:24 51°26.383 2°58.148 3.7953 2.907118 30.894045 2.454853
2005-03-07 08:42:28 51°26.398 2°58.158 3.796 2.90796 30.903077 2.421144
2005-03-07 08:42:33 51°26.414 2°58.169 3.7972 2.907223 30.891911 2.454853
2005-03-07 08:42:37 51°26.428 2°58.179 3.8004 2.907223 30.891911 2.454853
2005-03-07 08:42:44 51°26.45 2°58.193 3.8012 2.907012 30.8886 2.387435
2005-03-07 08:42:48 51°26.466 2°58.202 3.8008 2.911327 30.936678 2.387435
2005-03-07 08:42:52 51°26.479 2°58.211 3.8036 2.914274 30.967867 2.387435
2005-03-07 08:42:59 51°26.501 2°58.226 3.8053 2.902592 30.828367 2.320016
2005-03-07 08:43:04 51°26.517 2°58.237 3.8058 2.910696 30.92253 2.320016
2005-03-07 08:43:08 51°26.532 2°58.247 3.8062 2.910696 30.92253 2.320016
2005-03-07 08:43:14 51°26.55 2°58.26 3.8079 2.911854 30.934419 2.252597
2005-03-07 08:43:19 51°26.568 2°58.27 3.8064 2.911643 30.928581 2.252597
2005-03-07 08:43:23 51°26.583 2°58.28 3.8077 2.913538 30.949949 2.286306
2005-03-07 08:43:28 51°26.6 2°58.291 3.8065 2.911854 30.927678 2.252597
2005-03-07 08:43:33 51°26.616 2°58.302 3.8083 2.911748 30.92476 2.185178
2005-03-07 08:43:39 51°26.634 2°58.313 3.8073 2.911748 30.92476 2.185178
2005-03-07 08:43:44 51°26.648 2°58.324 3.8101 2.912906 30.936646 2.218888
2005-03-07 08:43:48 51°26.663 2°58.334 3.8134 2.908591 30.88691 2.218888
2005-03-07 08:43:53 51°26.677 2°58.344 3.8127 2.914695 30.959306 2.252597
2005-03-07 08:43:59 51°26.697 2°58.358 3.8106 2.915642 30.969568 2.218888
2005-03-07 08:44:04 51°26.713 2°58.37 3.8097 2.913958 30.94814 2.252597
2005-03-07 08:44:08 51°26.726 2°58.378 3.811 2.913958 30.94814 2.252597
2005-03-07 08:44:14 51°26.745 2°58.393 3.8082 2.913116 30.937428 2.218888
2005-03-07 08:44:18 51°26.758 2°58.402 3.81 2.914906 30.956715 2.252597
2005-03-07 08:44:24 51°26.779 2°58.416 3.8065 2.909643 30.894196 2.252597
2005-03-07 08:44:28 51°26.793 2°58.426 3.8059 2.914485 30.948409 2.185178
2005-03-07 08:44:33 51°26.809 2°58.436 3.8061 2.907433 30.867457 2.252597
2005-03-07 08:44:38 51°26.825 2°58.445 3.8064 2.907433 30.867457 2.252597
2005-03-07 08:44:44 51°26.844 2°58.458 3.8065 2.916484 30.975222 2.218888
2005-03-07 08:44:49 51°26.86 2°58.469 3.8037 2.916169 30.972364 2.151469
2005-03-07 08:44:54 51°26.878 2°58.48 3.8026 2.912064 30.925092 2.151469
2005-03-07 08:44:58 51°26.893 2°58.49 3.8 2.908801 30.886853 2.08405
2005-03-07 08:45:04 51°26.911 2°58.501 3.8022 2.911117 30.913147 2.050341
2005-03-07 08:45:09 51°26.927 2°58.512 3.7968 2.911117 30.913147 2.050341
2005-03-07 08:45:12 51°26.939 2°58.519 3.7984 2.904802 30.840828 2.050341
2005-03-07 08:45:19 51°26.961 2°58.534 3.8009 2.916379 30.976519 2.016631
2005-03-07 08:45:24 51°26.979 2°58.544 3.7989 2.918063 30.997951 1.949212
2005-03-07 08:45:28 51°26.993 2°58.554 3.7984 2.919958 31.0227 1.949212
2005-03-07 08:45:32 51°27.006 2°58.563 3.7977 2.913327 30.944952 1.982922
2005-03-07 08:45:39 51°27.027 2°58.579 3.7968 2.913327 30.944952 1.982922
2005-03-07 08:45:44 51°27.044 2°58.592 3.7998 2.908801 30.892742 1.982922
2005-03-07 08:45:48 51°27.059 2°58.603 3.7994 2.919221 31.016595 1.949212
2005-03-07 08:45:54 51°27.077 2°58.618 3.7991 2.906696 30.868912 1.915503
2005-03-07 08:45:59 51°27.094 2°58.631 3.7977 2.915643 30.97463 1.881794
2005-03-07 08:46:04 51°27.111 2°58.644 3.7981 2.917537 30.996846 1.814375
2005-03-07 08:46:09 51°27.126 2°58.656 3.7986 2.917537 30.996846 1.814375
2005-03-07 08:46:12 51°27.138 2°58.666 3.8012 2.911433 30.926113 1.814375
2005-03-07 08:46:18 51°27.157 2°58.681 3.8012 2.918484 31.007955 1.780665
2005-03-07 08:46:24 51°27.174 2°58.695 3.8027 2.917958 31.002628 1.814375
2005-03-07 08:46:28 51°27.19 2°58.707 3.8037 2.918379 31.00672 1.848084
2005-03-07 08:46:33 51°27.206 2°58.721 3.8035 2.918274 31.006331 1.780665
2005-03-07 08:46:38 51°27.222 2°58.734 3.8042 2.918274 31.006331 1.780665
2005-03-07 08:46:44 51°27.238 2°58.748 3.8052 2.9188 31.012502 1.780665
2005-03-07 08:46:49 51°27.255 2°58.764 3.8076 2.917958 31.000939 1.746956
2005-03-07 08:46:53 51°27.267 2°58.775 3.806 2.914801 30.963914 1.746956
2005-03-07 08:46:59 51°27.284 2°58.79 3.8069 2.917116 30.991909 1.679537
2005-03-07 08:47:04 51°27.298 2°58.803 3.8113 2.910485 30.912481 1.679537
2005-03-07 08:47:09 51°27.314 2°58.815 3.8122 2.910485 30.912481 1.679537
2005-03-07 08:47:14 51°27.33 2°58.829 3.812 2.919853 31.021466 1.679537
2005-03-07 08:47:18 51°27.344 2°58.839 3.8126 2.921326 31.037901 1.679537
2005-03-07 08:47:23 51°27.36 2°58.854 3.8173 2.922063 31.044851 1.746956
2005-03-07 08:47:29 51°27.378 2°58.869 3.8201 2.918484 31.001198 1.746956
2005-03-07 08:47:32 51°27.388 2°58.877 3.8202 2.920379 31.022567 1.713247
2005-03-07 08:47:39 51°27.41 2°58.896 3.8222 2.920379 31.022567 1.713247
2005-03-07 08:47:43 51°27.422 2°58.908 3.8249 2.918484 30.99951 1.679537
2005-03-07 08:47:48 51°27.436 2°58.925 3.8265 2.91659 30.976455 1.645828
2005-03-07 08:47:54 51°27.452 2°58.944 3.8278 2.919326 31.006004 1.645828
2005-03-07 08:47:59 51°27.465 2°58.964 3.834 2.92301 31.047503 1.645828
2005-03-07 08:48:04 51°27.479 2°58.984 3.8332 2.921642 31.028082 1.612118
2005-03-07 08:48:09 51°27.493 2°59.003 3.8341 2.921642 31.028082 1.612118
2005-03-07 08:48:14 51°27.507 2°59.024 3.8402 2.92301 31.041587 1.578409
2005-03-07 08:48:19 51°27.521 2°59.045 3.8396 2.924904 31.059569 1.612118
2005-03-07 08:48:24 51°27.534 2°59.065 3.8407 2.914064 30.931683 1.578409
2005-03-07 08:48:28 51°27.546 2°59.084 3.8429 2.923852 31.044696 1.51099
2005-03-07 08:48:32 51°27.557 2°59.102 3.8416 2.924062 31.044628 1.51099
2005-03-07 08:48:38 51°27.571 2°59.127 3.8441 2.924062 31.044628 1.51099
2005-03-07 08:48:44 51°27.585 2°59.152 3.8452 2.92322 31.033071 1.477281
2005-03-07 08:48:48 51°27.597 2°59.175 3.845 2.926483 31.068773 1.51099
2005-03-07 08:48:53 51°27.608 2°59.194 3.849 2.92122 31.003732 1.51099
2005-03-07 08:48:57 51°27.618 2°59.216 3.8469 2.922483 31.017685 1.477281
2005-03-07 08:49:04 51°27.634 2°59.246 3.8506 2.922904 31.020929 1.578409
2005-03-07 08:49:08 51°27.645 2°59.267 3.8519 2.922904 31.020929 1.578409
2005-03-07 08:49:13 51°27.656 2°59.288 3.8535 2.924694 31.039358 1.51099
2005-03-07 08:49:18 51°27.668 2°59.312 3.855 2.925851 31.052077 1.477281
2005-03-07 08:49:23 51°27.681 2°59.338 3.8542 2.926693 31.061097 1.51099
2005-03-07 08:49:28 51°27.692 2°59.359 3.8539 2.92322 31.019565 1.477281
2005-03-07 08:49:34 51°27.706 2°59.39 3.8528 2.926799 31.060641 1.443571
2005-03-07 08:49:38 51°27.716 2°59.409 3.8519 2.926799 31.060641 1.443571
2005-03-07 08:49:43 51°27.728 2°59.432 3.8554 2.924694 31.032605 1.376153
2005-03-07 08:49:48 51°27.74 2°59.458 3.856 2.928904 31.081921 1.376153
2005-03-07 08:49:52 51°27.749 2°59.478 3.8551 2.926167 31.048175 1.376153
2005-03-07 08:49:59 51°27.765 2°59.508 3.8526 2.926904 31.05596 1.308734
2005-03-07 08:50:04 51°27.777 2°59.532 3.8577 2.927746 31.065823 1.376153
2005-03-07 08:50:08 51°27.787 2°59.554 3.8571 2.927746 31.065823 1.376153
2005-03-07 08:50:13 51°27.8 2°59.578 3.8554 2.92543 31.039546 1.275024
2005-03-07 08:50:19 51°27.813 2°59.604 3.86 2.923746 31.018135 1.275024
2005-03-07 08:50:24 51°27.825 2°59.629 3.8579 2.927851 31.065366 1.342443
2005-03-07 08:50:28 51°27.836 2°59.649 3.8583 2.917326 30.943801 1.275024
2005-03-07 08:50:33 51°27.848 2°59.674 3.8577 2.920168 30.976231 1.241315
2005-03-07 08:50:39 51°27.862 2°59.701 3.8601 2.920168 30.976231 1.241315
2005-03-07 08:50:44 51°27.873 2°59.724 3.8613 2.924167 31.020535 1.275024
2005-03-07 08:50:48 51°27.884 2°59.745 3.8593 2.924378 31.025531 1.207606
2005-03-07 08:50:52 51°27.893 2°59.762 3.8588 2.929325 31.082626 1.207606
2005-03-07 08:50:58 51°27.909 2°59.791 3.8612 2.926167 31.044798 1.207606
2005-03-07 08:51:04 51°27.922 2°59.817 3.8616 2.924799 31.027086 1.140187
2005-03-07 08:51:08 51°27.932 2°59.837 3.8614 2.924799 31.027086 1.140187
2005-03-07 08:51:12 51°27.942 2°59.858 3.8608 2.92522 31.031173 1.106477
2005-03-07 08:51:17 51°27.954 2°59.882 3.8642 2.927956 31.061531 1.140187
2005-03-07 08:51:23 51°27.968 2°59.91 3.8661 2.931324 31.100978 1.106477
2005-03-07 08:51:28 51°27.978 2°59.936 3.8656 2.927641 31.058678 1.140187
2005-03-07 08:51:32 51°27.988 2°59.954 3.8638 2.921115 30.982267 1.140187
2005-03-07 08:51:36 51°27.997 2°59.975 3.8653 2.921115 30.982267 1.140187
2005-03-07 08:51:43 51°28.013 3°0.01 3.8636 2.930272 31.08865 1.106477